Provisional Data: Trout Brook near McGraw, NY


Please select a monitoring station.
Please select start date.
Please select start date.

Toggle Unit: C/F Toggle Unit: C/F
Sample Time Temperature (C) Temperature (F) Specific Conductivity (mS/cm) pH   Turbidity (NTU+) DO (mg/L)
1/12/2021 12:00:00 AM 1.12 34.016 0.167 7.78 0.76 14.12
1/12/2021 12:15:00 AM 1.12 34.016 0.167 7.78 0.76 14.12
1/12/2021 12:30:00 AM 1.12 34.016 0.167 7.78 0.69 14.12
1/12/2021 12:45:00 AM 1.13 34.034 0.167 7.78 0.65 14.12
1/12/2021 1:00:00 AM 1.13 34.034 0.167 7.78 0.71 14.11
1/12/2021 1:15:00 AM 1.14 34.052 0.167 7.78 0.77 14.11
1/12/2021 1:30:00 AM 1.14 34.052 0.167 7.78 0.77 14.11
1/12/2021 1:45:00 AM 1.15 34.07 0.167 7.78 0.73 14.11
1/12/2021 2:00:00 AM 1.15 34.07 0.168 7.78 0.69 14.11
1/12/2021 2:15:00 AM 1.16 34.088 0.168 7.78 0.7 14.11
1/12/2021 2:30:00 AM 1.16 34.088 0.168 7.78 0.74 14.11
1/12/2021 2:45:00 AM 1.16 34.088 0.168 7.77 0.71 14.11
1/12/2021 3:00:00 AM 1.17 34.106 0.168 7.78 0.77 14.1
1/12/2021 3:15:00 AM 1.17 34.106 0.168 7.78 0.77 14.1
1/12/2021 3:30:00 AM 1.17 34.106 0.168 7.78 0.8 14.1
1/12/2021 3:45:00 AM 1.17 34.106 0.168 7.79 0.79 14.1
1/12/2021 4:00:00 AM 1.17 34.106 0.168 7.79 0.78 14.1
1/12/2021 4:15:00 AM 1.17 34.106 0.168 7.79 0.74 14.1
1/12/2021 4:30:00 AM 1.18 34.124 0.168 7.79 0.66 14.09
1/12/2021 4:45:00 AM 1.19 34.142 0.168 7.8 0.64 14.09
1/12/2021 5:00:00 AM 1.19 34.142 0.168 7.8 0.7 14.09
1/12/2021 5:15:00 AM 1.19 34.142 0.168 7.8 0.7 14.09
1/12/2021 5:30:00 AM 1.19 34.142 0.168 7.8 0.79 14.09
1/12/2021 5:45:00 AM 1.19 34.142 0.168 7.8 0.69 14.09
1/12/2021 6:00:00 AM 1.18 34.124 0.168 7.8 0.64 14.09
1/12/2021 6:15:00 AM 1.19 34.142 0.168 7.8 0.63 14.09
1/12/2021 6:30:00 AM 1.19 34.142 0.168 7.8 0.66 14.09
1/12/2021 6:45:00 AM 1.19 34.142 0.168 7.8 0.68 14.09
1/12/2021 7:00:00 AM 1.19 34.142 0.168 7.8 0.64 14.09
1/12/2021 7:15:00 AM 1.18 34.124 0.168 7.8 0.83 14.09
1/12/2021 7:30:00 AM 1.18 34.124 0.168 7.8 0.74 14.09
1/12/2021 7:45:00 AM 1.18 34.124 0.168 7.8 0.71 14.1
1/12/2021 8:00:00 AM 1.18 34.124 0.168 7.8 0.7 14.1
1/12/2021 8:15:00 AM 1.19 34.142 0.168 7.8 0.6 14.1
1/12/2021 8:30:00 AM 1.19 34.142 0.168 7.8 0.63 14.11
1/12/2021 8:45:00 AM 1.19 34.142 0.168 7.8 0.63 14.1
1/12/2021 9:00:00 AM 1.21 34.178 0.168 7.81 0.62 14.11
1/12/2021 9:15:00 AM 1.22 34.196 0.168 7.81 0.59 14.12
1/12/2021 9:30:00 AM 1.23 34.214 0.168 7.81 0.61 14.11
1/12/2021 9:45:00 AM 1.26 34.268 0.168 7.81 0.63 14.12
1/12/2021 10:00:00 AM 1.27 34.286 0.168 7.81 0.6 14.11
1/12/2021 10:15:00 AM 1.3 34.34 0.168 7.81 0.56 14.11
1/12/2021 10:30:00 AM 1.32 34.376 0.168 7.81 0.6 14.11
1/12/2021 10:45:00 AM 1.34 34.412 0.168 7.81 0.61 14.1
1/12/2021 11:00:00 AM 1.35 34.43 0.168 7.81 0.63 14.1
1/12/2021 11:15:00 AM 1.37 34.466 0.168 7.81 0.63 14.09
1/12/2021 11:30:00 AM 1.39 34.502 0.168 7.81 0.52 14.09
1/12/2021 11:45:00 AM 1.38 34.484 0.168 7.81 0.54 14.08
1/12/2021 12:00:00 PM 1.4 34.52 0.168 7.81 0.54 14.07
1/12/2021 12:15:00 PM 1.42 34.556 0.169 7.82 0.53 14.08
1/12/2021 12:30:00 PM 1.42 34.556 0.168 7.81 0.53 14.07
1/12/2021 12:45:00 PM 1.43 34.574 0.168 7.82 0.53 14.06
1/12/2021 1:00:00 PM 1.44 34.592 0.168 7.82 0.52 14.05
1/12/2021 1:15:00 PM 1.45 34.61 0.168 7.81 0.55 14.05
1/12/2021 1:30:00 PM 1.46 34.628 0.168 7.82 0.47 14.04
1/12/2021 1:45:00 PM 1.47 34.646 0.169 7.82 0.49 14.04
1/12/2021 2:00:00 PM 1.48 34.664 0.169 7.82 0.42 14.04
1/12/2021 2:15:00 PM 1.49 34.682 0.169 7.81 0.51 14.03
1/12/2021 2:30:00 PM 1.51 34.718 0.169 7.81 0.48 14.02
1/12/2021 2:45:00 PM 1.53 34.754 0.169 7.82 0.49 14.02
1/12/2021 3:00:00 PM 1.54 34.772 0.168 7.82 0.5 14.02
1/12/2021 3:15:00 PM 1.55 34.79 0.168 7.82 0.49 14.01
1/12/2021 3:30:00 PM 1.56 34.808 0.169 7.82 0.47 14.01
1/12/2021 3:45:00 PM 1.56 34.808 0.169 7.82 0.43 14
1/12/2021 4:00:00 PM 1.56 34.808 0.169 7.82 0.46 13.99
1/12/2021 4:15:00 PM 1.56 34.808 0.168 7.81 0.46 13.99
1/12/2021 4:30:00 PM 1.56 34.808 0.169 7.81 0.49 13.98
1/12/2021 4:45:00 PM 1.54 34.772 0.169 7.81 0.44 13.98
1/12/2021 5:00:00 PM 1.54 34.772 0.169 7.81 0.6 13.96
1/12/2021 5:15:00 PM 1.52 34.736 0.169 7.8 0.7 13.96
1/12/2021 5:30:00 PM 1.51 34.718 0.169 7.8 0.76 13.96
1/12/2021 5:45:00 PM 1.5 34.7 0.169 7.8 0.74 13.96
1/12/2021 6:00:00 PM 1.49 34.682 0.169 7.8 0.76 13.96
1/12/2021 6:15:00 PM 1.48 34.664 0.169 7.8 0.69 13.97
1/12/2021 6:30:00 PM 1.48 34.664 0.169 7.8 0.7 13.97
1/12/2021 6:45:00 PM 1.47 34.646 0.169 7.8 0.71 13.97
1/12/2021 7:00:00 PM 1.46 34.628 0.169 7.8 0.69 13.97
1/12/2021 7:15:00 PM 1.46 34.628 0.169 7.8 0.65 13.97
1/12/2021 7:30:00 PM 1.45 34.61 0.169 7.8 0.72 13.97
1/12/2021 7:45:00 PM 1.44 34.592 0.169 7.79 0.75 13.98
1/12/2021 8:00:00 PM 1.43 34.574 0.169 7.8 0.78 13.98
1/12/2021 8:15:00 PM 1.42 34.556 0.169 7.79 0.77 13.98
1/12/2021 8:30:00 PM 1.41 34.538 0.169 7.79 0.74 13.98
1/12/2021 8:45:00 PM 1.4 34.52 0.169 7.79 0.77 13.98
1/12/2021 9:00:00 PM 1.4 34.52 0.169 7.79 0.73 13.99
1/12/2021 9:15:00 PM 1.39 34.502 0.169 7.79 0.72 14
1/12/2021 9:30:00 PM 1.39 34.502 0.169 7.79 0.78 14
1/12/2021 9:45:00 PM 1.38 34.484 0.169 7.79 0.72 14.01
1/12/2021 10:00:00 PM 1.37 34.466 0.169 7.79 0.76 14
1/12/2021 10:15:00 PM 1.37 34.466 0.169 7.79 0.7 14.01
1/12/2021 10:30:00 PM 1.36 34.448 0.169 7.79 0.71 14.01
1/12/2021 10:45:00 PM 1.36 34.448 0.169 7.79 0.74 14.01
1/12/2021 11:00:00 PM 1.35 34.43 0.169 7.79 0.74 14.01
1/12/2021 11:15:00 PM 1.35 34.43 0.169 7.79 0.8 14.01
1/12/2021 11:30:00 PM 1.35 34.43 0.169 7.79 0.69 14.01
1/12/2021 11:45:00 PM 1.34 34.412 0.169 7.79 0.66 14
1/13/2021 12:00:00 AM 1.34 34.412 0.169 7.79 0.68 14.01
1/13/2021 12:15:00 AM 1.34 34.412 0.169 7.79 0.71 14.01
1/13/2021 12:30:00 AM 1.34 34.412 0.169 7.79 0.73 14.01
1/13/2021 12:45:00 AM 1.33 34.394 0.169 7.79 0.77 14.01
1/13/2021 1:00:00 AM 1.33 34.394 0.169 7.79 0.81 14.01
1/13/2021 1:15:00 AM 1.32 34.376 0.169 7.79 0.78 14.01
1/13/2021 1:30:00 AM 1.32 34.376 0.169 7.79 0.69 14.01
1/13/2021 1:45:00 AM 1.32 34.376 0.17 7.79 0.66 14.01
1/13/2021 2:00:00 AM 1.32 34.376 0.17 7.79 0.57 14.01
1/13/2021 2:15:00 AM 1.32 34.376 0.17 7.79 0.66 14.01
1/13/2021 2:30:00 AM 1.32 34.376 0.17 7.79 0.61 14.01
1/13/2021 2:45:00 AM 1.32 34.376 0.17 7.79 0.58 14.02
1/13/2021 3:00:00 AM 1.31 34.358 0.17 7.79 0.65 14.01
1/13/2021 3:15:00 AM 1.31 34.358 0.17 7.79 0.57 14.02
1/13/2021 3:30:00 AM 1.31 34.358 0.17 7.79 0.57 14.02
1/13/2021 3:45:00 AM 1.3 34.34 0.17 7.79 0.78 14.01
1/13/2021 4:00:00 AM 1.3 34.34 0.17 7.79 0.55 14.02
1/13/2021 4:15:00 AM 1.3 34.34 0.17 7.79 0.77 14.02
1/13/2021 4:30:00 AM 1.29 34.322 0.17 7.79 0.51 14.02
1/13/2021 4:45:00 AM 1.28 34.304 0.17 7.79 0.59 14.01
1/13/2021 5:00:00 AM 1.28 34.304 0.17 7.79 0.58 14.02
1/13/2021 5:15:00 AM 1.28 34.304 0.17 7.79 0.59 14.02
1/13/2021 5:30:00 AM 1.27 34.286 0.17 7.79 0.63 14.02
1/13/2021 5:45:00 AM 1.27 34.286 0.17 7.79 0.56 14.02
1/13/2021 6:00:00 AM 1.26 34.268 0.17 7.79 0.58 14.02
1/13/2021 6:15:00 AM 1.26 34.268 0.17 7.79 0.59 14.02
1/13/2021 6:30:00 AM 1.25 34.25 0.17 7.79 0.55 14.03
1/13/2021 6:45:00 AM 1.25 34.25 0.17 7.79 0.56 14.03
1/13/2021 7:00:00 AM 1.24 34.232 0.17 7.79 0.59 14.03
1/13/2021 7:15:00 AM 1.24 34.232 0.17 7.78 0.55 14.03
1/13/2021 7:30:00 AM 1.24 34.232 0.17 7.79 0.57 14.03
1/13/2021 7:45:00 AM 1.24 34.232 0.17 7.79 0.6 14.03
1/13/2021 8:00:00 AM 1.24 34.232 0.17 7.78 0.53 14.04
1/13/2021 8:15:00 AM 1.25 34.25 0.17 7.79 0.54 14.04
1/13/2021 8:30:00 AM 1.26 34.268 0.17 7.79 0.51 14.05
1/13/2021 8:45:00 AM 1.27 34.286 0.17 7.79 0.52 14.05
1/13/2021 9:00:00 AM 1.28 34.304 0.17 7.79 0.51 14.06
1/13/2021 9:15:00 AM 1.29 34.322 0.17 7.8 0.5 14.05
1/13/2021 9:30:00 AM 1.32 34.376 0.17 7.8 0.5 14.05
1/13/2021 9:45:00 AM 1.32 34.376 0.17 7.8 0.47 14.05
1/13/2021 10:00:00 AM 1.34 34.412 0.17 7.81 0.49 14.05
1/13/2021 10:15:00 AM 1.33 34.394 0.17 7.8 0.52 14.04
1/13/2021 10:30:00 AM 1.38 34.484 0.17 7.81 0.51 14.03
1/13/2021 10:45:00 AM 1.42 34.556 0.17 7.81 0.55 14.03
1/13/2021 11:00:00 AM 1.46 34.628 0.17 7.81 0.47 14.03
1/13/2021 11:15:00 AM 1.49 34.682 0.17 7.81 0.5 14.02
1/13/2021 11:30:00 AM 1.52 34.736 0.17 7.81 0.43 14.01
1/13/2021 11:45:00 AM 1.54 34.772 0.17 7.81 0.5 14
1/13/2021 12:00:00 PM 1.58 34.844 0.17 7.82 0.43 13.99
1/13/2021 12:15:00 PM 1.61 34.898 0.17 7.82 0.45 13.97
1/13/2021 12:30:00 PM 1.65 34.97 0.17 7.82 0.47 13.96
1/13/2021 12:45:00 PM 1.7 35.06 0.17 7.82 0.52 13.95
1/13/2021 1:00:00 PM 1.73 35.114 0.17 7.82 0.48 13.93
1/13/2021 1:15:00 PM 1.8 35.24 0.17 7.82 0.46 13.91
1/13/2021 1:30:00 PM 1.84 35.312 0.17 7.82 0.49 13.89
1/13/2021 1:45:00 PM 1.87 35.366 0.17 7.82 0.44 13.87
1/13/2021 2:00:00 PM 1.91 35.438 0.17 7.82 0.51 13.85
1/13/2021 2:15:00 PM 1.95 35.51 0.17 7.82 0.57 13.84
1/13/2021 2:30:00 PM 2.02 35.636 0.17 7.82 0.57 13.82
1/13/2021 2:45:00 PM 2.04 35.672 0.17 7.82 0.46 13.81
1/13/2021 3:00:00 PM 2.04 35.672 0.17 7.82 0.52 13.8
1/13/2021 3:15:00 PM 2.05 35.69 0.17 7.82 0.5 13.78
1/13/2021 3:30:00 PM 2.07 35.726 0.17 7.82 0.55 13.77
1/13/2021 3:45:00 PM 2.06 35.708 0.17 7.82 0.5 13.77
1/13/2021 4:00:00 PM 2.05 35.69 0.17 7.82 0.46 13.76
1/13/2021 4:15:00 PM 2.03 35.654 0.17 7.82 0.5 13.75
1/13/2021 4:30:00 PM 2.01 35.618 0.17 7.82 0.46 13.75
1/13/2021 4:45:00 PM 1.98 35.564 0.17 7.81 0.45 13.73
1/13/2021 5:00:00 PM 1.95 35.51 0.17 7.81 0.53 13.73
1/13/2021 5:15:00 PM 1.92 35.456 0.17 7.81 0.52 13.72
1/13/2021 5:30:00 PM 1.88 35.384 0.17 7.8 0.52 13.72
1/13/2021 5:45:00 PM 1.84 35.312 0.17 7.8 0.49 13.73
1/13/2021 6:00:00 PM 1.81 35.258 0.17 7.8 0.57 13.74
1/13/2021 6:15:00 PM 1.77 35.186 0.17 7.8 0.46 13.75
1/13/2021 6:30:00 PM 1.75 35.15 0.17 7.8 0.57 13.76
1/13/2021 6:45:00 PM 1.72 35.096 0.17 7.8 0.55 13.76
1/13/2021 7:00:00 PM 1.7 35.06 0.17 7.8 0.54 13.77
1/13/2021 7:15:00 PM 1.68 35.024 0.171 7.8 0.55 13.77
1/13/2021 7:30:00 PM 1.65 34.97 0.171 7.79 0.61 13.78
1/13/2021 7:45:00 PM 1.62 34.916 0.171 7.79 0.6 13.79
1/13/2021 8:00:00 PM 1.59 34.862 0.171 7.79 0.58 13.8
1/13/2021 8:15:00 PM 1.56 34.808 0.17 7.79 0.53 13.82
1/13/2021 8:30:00 PM 1.53 34.754 0.171 7.79 0.52 13.82
1/13/2021 8:45:00 PM 1.49 34.682 0.171 7.79 0.56 13.83
1/13/2021 9:00:00 PM 1.45 34.61 0.171 7.79 0.51 13.85
1/13/2021 9:15:00 PM 1.4 34.52 0.171 7.79 0.51 13.86
1/13/2021 9:30:00 PM 1.37 34.466 0.171 7.78 0.45 13.87
1/13/2021 9:45:00 PM 1.33 34.394 0.171 7.79 0.49 13.89
1/13/2021 10:00:00 PM 1.29 34.322 0.171 7.79 0.48 13.91
1/13/2021 10:15:00 PM 1.25 34.25 0.171 7.79 0.48 13.92
1/13/2021 10:30:00 PM 1.2 34.16 0.171 7.78 0.49 13.94
1/13/2021 10:45:00 PM 1.17 34.106 0.171 7.78 0.5 13.95
1/13/2021 11:00:00 PM 1.15 34.07 0.171 7.78 0.47 13.96
1/13/2021 11:15:00 PM 1.12 34.016 0.171 7.78 0.39 13.97
1/13/2021 11:30:00 PM 1.09 33.962 0.171 7.78 0.41 13.98
1/13/2021 11:45:00 PM 1.06 33.908 0.171 7.78 0.45 14
1/14/2021 12:00:00 AM 1.04 33.872 0.171 7.78 0.4 14
1/14/2021 12:15:00 AM 1.03 33.854 0.171 7.78 0.38 14.01
1/14/2021 12:30:00 AM 1.02 33.836 0.171 7.78 0.5 14.02
1/14/2021 12:45:00 AM 1 33.8 0.171 7.78 0.37 14.02
1/14/2021 1:00:00 AM 1 33.8 0.171 7.78 0.52 14.03
1/14/2021 1:15:00 AM 0.99 33.782 0.171 7.78 0.5 14.02
1/14/2021 1:30:00 AM 0.98 33.764 0.171 7.79 0.52 14.03
1/14/2021 1:45:00 AM 0.98 33.764 0.171 7.78 0.5 14.03
1/14/2021 2:00:00 AM 0.98 33.764 0.172 7.79 0.5 14.04
1/14/2021 2:15:00 AM 0.97 33.746 0.171 7.79 0.5 14.04
1/14/2021 2:30:00 AM 0.97 33.746 0.172 7.78 0.52 14.04
1/14/2021 2:45:00 AM 0.97 33.746 0.172 7.78 0.48 14.04
1/14/2021 3:00:00 AM 0.95 33.71 0.172 7.78 0.42 14.05
1/14/2021 3:15:00 AM 0.94 33.692 0.172 7.78 0.53 14.05
1/14/2021 3:30:00 AM 0.93 33.674 0.172 7.78 0.56 14.05
1/14/2021 3:45:00 AM 0.92 33.656 0.172 7.78 0.61 14.05
1/14/2021 4:00:00 AM 0.93 33.674 0.172 7.78 0.54 14.05
1/14/2021 4:15:00 AM 0.94 33.692 0.172 7.78 0.44 14.05
1/14/2021 4:30:00 AM 0.95 33.71 0.172 7.78 0.4 14.05
1/14/2021 4:45:00 AM 0.96 33.728 0.172 7.78 0.38 14.05
1/14/2021 5:00:00 AM 0.98 33.764 0.172 7.78 0.38 14.04
1/14/2021 5:15:00 AM 0.99 33.782 0.172 7.78 0.39 14.04
1/14/2021 5:30:00 AM 1.01 33.818 0.172 7.78 0.43 14.04
1/14/2021 5:45:00 AM 1.02 33.836 0.172 7.78 0.39 14.03
1/14/2021 6:00:00 AM 1.03 33.854 0.172 7.78 0.41 14.03
1/14/2021 6:15:00 AM 1.04 33.872 0.172 7.78 0.42 14.02
1/14/2021 6:30:00 AM 1.06 33.908 0.172 7.78 0.45 14.02
1/14/2021 6:45:00 AM 1.06 33.908 0.172 7.78 0.44 14.02
1/14/2021 7:00:00 AM 1.07 33.926 0.172 7.78 0.43 14.01
1/14/2021 7:15:00 AM 1.09 33.962 0.172 7.78 0.41 14.01
1/14/2021 7:30:00 AM 1.09 33.962 0.172 7.78 0.43 14.01
1/14/2021 7:45:00 AM 1.11 33.998 0.172 7.78 0.47 14.01
1/14/2021 8:00:00 AM 1.12 34.016 0.172 7.78 0.54 14
1/14/2021 8:15:00 AM 1.15 34.07 0.172 7.78 0.5 14
1/14/2021 8:30:00 AM 1.17 34.106 0.172 7.79 0.41 14.01
1/14/2021 8:45:00 AM 1.21 34.178 0.172 7.79 0.42 14.01
1/14/2021 9:00:00 AM 1.24 34.232 0.172 7.79 0.39 14.02
1/14/2021 9:15:00 AM 1.28 34.304 0.172 7.79 0.35 14.01
1/14/2021 9:30:00 AM 1.31 34.358 0.172 7.79 0.33 14.01
1/14/2021 9:45:00 AM 1.36 34.448 0.172 7.8 0.34 14
1/14/2021 10:00:00 AM 1.41 34.538 0.172 7.8 0.4 14
1/14/2021 10:15:00 AM 1.46 34.628 0.172 7.8 0.38 13.98
1/14/2021 10:30:00 AM 1.51 34.718 0.172 7.8 0.3 13.98
1/14/2021 10:45:00 AM 1.56 34.808 0.172 7.8 0.34 13.96
1/14/2021 11:00:00 AM 1.62 34.916 0.172 7.8 0.36 13.94
1/14/2021 11:15:00 AM 1.68 35.024 0.172 7.8 0.31 13.92
1/14/2021 11:30:00 AM 1.75 35.15 0.172 7.8 0.33 13.9
1/14/2021 11:45:00 AM 1.81 35.258 0.172 7.81 0.3 13.88
1/14/2021 12:00:00 PM 1.86 35.348 0.172 7.8 0.29 13.86
1/14/2021 12:15:00 PM 1.91 35.438 0.172 7.8 0.29 13.84
1/14/2021 12:30:00 PM 1.94 35.492 0.172 7.81 0.28 13.82
1/14/2021 12:45:00 PM 1.99 35.582 0.172 7.81 0.26 13.8
1/14/2021 1:00:00 PM 2.04 35.672 0.172 7.81 0.31 13.78
1/14/2021 1:15:00 PM 2.09 35.762 0.172 7.81 0.3 13.76
1/14/2021 1:30:00 PM 2.13 35.834 0.172 7.8 0.28 13.75
1/14/2021 1:45:00 PM 2.17 35.906 0.172 7.81 0.28 13.73
1/14/2021 2:00:00 PM 2.21 35.978 0.172 7.8 0.31 13.72
1/14/2021 2:15:00 PM 2.24 36.032 0.172 7.8 0.31 13.7
1/14/2021 2:30:00 PM 2.26 36.068 0.172 7.8 0.32 13.69
1/14/2021 2:45:00 PM 2.29 36.122 0.172 7.8 0.28 13.68
1/14/2021 3:00:00 PM 2.31 36.158 0.172 7.8 0.26 13.66
1/14/2021 3:15:00 PM 2.32 36.176 0.172 7.8 0.29 13.65
1/14/2021 3:30:00 PM 2.33 36.194 0.172 7.8 0.32 13.64
1/14/2021 3:45:00 PM 2.33 36.194 0.172 7.8 0.36 13.63
1/14/2021 4:00:00 PM 2.33 36.194 0.172 7.8 0.39 13.61
1/14/2021 4:15:00 PM 2.32 36.176 0.172 7.79 0.33 13.6
1/14/2021 4:30:00 PM 2.31 36.158 0.172 7.79 0.26 13.59
1/14/2021 4:45:00 PM 2.3 36.14 0.172 7.79 0.39 13.59
1/14/2021 5:00:00 PM 2.29 36.122 0.172 7.78 0.34 13.58
1/14/2021 5:15:00 PM 2.27 36.086 0.172 7.78 0.4 13.58
1/14/2021 5:30:00 PM 2.26 36.068 0.172 7.78 0.45 13.57
1/14/2021 5:45:00 PM 2.25 36.05 0.172 7.77 0.41 13.58
1/14/2021 6:00:00 PM 2.24 36.032 0.172 7.77 0.47 13.58
1/14/2021 6:15:00 PM 2.22 35.996 0.172 7.77 0.49 13.58
1/14/2021 6:30:00 PM 2.22 35.996 0.172 7.77 0.48 13.59
1/14/2021 6:45:00 PM 2.21 35.978 0.172 7.77 0.56 13.59
1/14/2021 7:00:00 PM 2.2 35.96 0.172 7.77 0.54 13.6
1/14/2021 7:15:00 PM 2.19 35.942 0.172 7.77 0.5 13.6
1/14/2021 7:30:00 PM 2.18 35.924 0.172 7.77 0.53 13.6
1/14/2021 7:45:00 PM 2.17 35.906 0.172 7.77 0.5 13.61
1/14/2021 8:00:00 PM 2.17 35.906 0.172 7.77 0.53 13.61
1/14/2021 8:15:00 PM 2.16 35.888 0.172 7.77 0.48 13.61
1/14/2021 8:30:00 PM 2.15 35.87 0.172 7.77 0.5 13.61
1/14/2021 8:45:00 PM 2.15 35.87 0.172 7.77 0.47 13.62
1/14/2021 9:00:00 PM 2.14 35.852 0.172 7.77 0.51 13.62
1/14/2021 9:15:00 PM 2.14 35.852 0.172 7.77 0.49 13.62
1/14/2021 9:30:00 PM 2.14 35.852 0.172 7.77 0.46 13.62
1/14/2021 9:45:00 PM 2.13 35.834 0.172 7.77 0.49 13.62
1/14/2021 10:00:00 PM 2.13 35.834 0.172 7.77 0.44 13.63
1/14/2021 10:15:00 PM 2.13 35.834 0.172 7.76 0.44 13.63
1/14/2021 10:30:00 PM 2.12 35.816 0.172 7.76 0.42 13.63
1/14/2021 10:45:00 PM 2.12 35.816 0.172 7.76 0.38 13.64
1/14/2021 11:00:00 PM 2.12 35.816 0.172 7.77 0.41 13.64
1/14/2021 11:15:00 PM 2.12 35.816 0.172 7.77 0.48 13.64
1/14/2021 11:30:00 PM 2.11 35.798 0.172 7.77 0.51 13.64
1/14/2021 11:45:00 PM 2.11 35.798 0.172 7.77 0.4 13.64
1/15/2021 12:00:00 AM 2.11 35.798 0.172 7.76 0.45 13.64
1/15/2021 12:15:00 AM 2.1 35.78 0.172 7.76 0.44 13.65
1/15/2021 12:30:00 AM 2.09 35.762 0.172 7.76 0.44 13.64
1/15/2021 12:45:00 AM 2.07 35.726 0.172 7.76 0.52 13.65
1/15/2021 1:00:00 AM 2.05 35.69 0.172 7.77 0.54 13.65
1/15/2021 1:15:00 AM 2.04 35.672 0.172 7.76 0.69 13.66
1/15/2021 1:30:00 AM 2.02 35.636 0.172 7.77 0.56 13.67
1/15/2021 1:45:00 AM 1.99 35.582 0.172 7.77 0.57 13.68
1/15/2021 2:00:00 AM 1.95 35.51 0.172 7.77 0.49 13.68
1/15/2021 2:15:00 AM 1.93 35.474 0.172 7.77 0.46 13.7
1/15/2021 2:30:00 AM 1.91 35.438 0.172 7.77 0.6 13.7
1/15/2021 2:45:00 AM 1.89 35.402 0.172 7.77 0.52 13.72
1/15/2021 3:00:00 AM 1.88 35.384 0.172 7.77 0.54 13.73
1/15/2021 3:15:00 AM 1.87 35.366 0.172 7.77 0.52 13.74
1/15/2021 3:30:00 AM 1.87 35.366 0.172 7.77 0.47 13.75
1/15/2021 3:45:00 AM 1.87 35.366 0.172 7.77 0.46 13.75
1/15/2021 4:00:00 AM 1.86 35.348 0.172 7.77 0.46 13.75
1/15/2021 4:15:00 AM 1.83 35.294 0.172 7.77 0.5 13.76
1/15/2021 4:30:00 AM 1.8 35.24 0.172 7.77 0.55 13.76
1/15/2021 4:45:00 AM 1.76 35.168 0.172 7.77 0.62 13.77
1/15/2021 5:00:00 AM 1.73 35.114 0.173 7.77 0.66 13.78
1/15/2021 5:15:00 AM 1.69 35.042 0.173 7.78 0.61 13.8
1/15/2021 5:30:00 AM 1.65 34.97 0.173 7.78 0.55 13.8
1/15/2021 5:45:00 AM 1.62 34.916 0.173 7.78 0.55 13.81
1/15/2021 6:00:00 AM 1.58 34.844 0.173 7.78 0.53 13.83
1/15/2021 6:15:00 AM 1.54 34.772 0.173 7.78 0.62 13.84
1/15/2021 6:30:00 AM 1.51 34.718 0.173 7.78 0.65 13.85
1/15/2021 6:45:00 AM 1.47 34.646 0.173 7.78 0.63 13.86
1/15/2021 7:00:00 AM 1.44 34.592 0.173 7.78 0.56 13.88
1/15/2021 7:15:00 AM 1.41 34.538 0.173 7.78 0.55 13.9
1/15/2021 7:30:00 AM 1.38 34.484 0.173 7.78 0.49 13.91
1/15/2021 7:45:00 AM 1.35 34.43 0.173 7.78 0.57 13.93
1/15/2021 8:00:00 AM 1.33 34.394 0.173 7.78 0.48 13.95
1/15/2021 8:15:00 AM 1.33 34.394 0.173 7.79 0.5 13.98
1/15/2021 8:30:00 AM 1.35 34.43 0.173 7.79 0.5 14
1/15/2021 8:45:00 AM 1.38 34.484 0.173 7.8 0.51 14.01
1/15/2021 9:00:00 AM 1.4 34.52 0.173 7.8 0.47 14.03
1/15/2021 9:15:00 AM 1.43 34.574 0.173 7.8 0.42 14.03
1/15/2021 9:30:00 AM 1.48 34.664 0.173 7.81 0.4 14.03
1/15/2021 9:45:00 AM 1.54 34.772 0.173 7.81 0.35 14.02
1/15/2021 10:00:00 AM 1.6 34.88 0.173 7.81 0.4 14.01
1/15/2021 10:15:00 AM 1.67 35.006 0.173 7.81 0.32 14
1/15/2021 10:30:00 AM 1.75 35.15 0.173 7.81 0.32 13.98
1/15/2021 10:45:00 AM 1.84 35.312 0.173 7.82 0.31 13.95
1/15/2021 11:00:00 AM 1.91 35.438 0.173 7.82 0.28 13.92
1/15/2021 11:15:00 AM 1.99 35.582 0.173 7.82 0.26 13.9
1/15/2021 11:30:00 AM 2.07 35.726 0.173 7.82 0.26 13.87
1/15/2021 11:45:00 AM 2.15 35.87 0.173 7.83 0.25 13.84
1/15/2021 12:00:00 PM 2.32 36.176 0.173 7.82 0.26 13.8
1/15/2021 12:15:00 PM 2.43 36.374 0.173 7.83 0.36 13.77
1/15/2021 12:30:00 PM 2.54 36.572 0.173 7.83 0.38 13.73
1/15/2021 12:45:00 PM 2.59 36.662 0.173 7.82 0.31 13.68
1/15/2021 1:00:00 PM 2.66 36.788 0.173 7.83 0.3 13.64
1/15/2021 1:15:00 PM 2.72 36.896 0.173 7.83 0.32 13.62
1/15/2021 1:30:00 PM 2.77 36.986 0.173 7.83 0.32 13.59
1/15/2021 1:45:00 PM 2.85 37.13 0.173 7.83 0.31 13.55
1/15/2021 2:00:00 PM 2.87 37.166 0.173 7.83 0.31 13.55
1/15/2021 2:15:00 PM 2.89 37.202 0.173 7.83 0.36 13.53
1/15/2021 2:30:00 PM 2.91 37.238 0.173 7.84 0.31 13.52
1/15/2021 2:45:00 PM 2.93 37.274 0.173 7.83 0.38 13.5
1/15/2021 3:00:00 PM 2.91 37.238 0.172 7.84 0.46 13.49
1/15/2021 3:15:00 PM 2.91 37.238 0.172 7.83 0.51 13.49
1/15/2021 3:30:00 PM 2.89 37.202 0.173 7.83 0.49 13.46
1/15/2021 3:45:00 PM 2.86 37.148 0.173 7.82 0.53 13.46
1/15/2021 4:00:00 PM 2.83 37.094 0.173 7.82 0.57 13.44
1/15/2021 4:15:00 PM 2.8 37.04 0.173 7.81 0.56 13.43
1/15/2021 4:30:00 PM 2.77 36.986 0.173 7.81 0.71 13.44
1/15/2021 4:45:00 PM 2.74 36.932 0.173 7.81 0.87 13.43
1/15/2021 5:00:00 PM 2.71 36.878 0.173 7.8 0.86 13.44
1/15/2021 5:15:00 PM 2.68 36.824 0.173 7.8 0.89 13.43
1/15/2021 5:30:00 PM 2.66 36.788 0.173 7.8 0.98 13.43
1/15/2021 5:45:00 PM 2.64 36.752 0.172 7.8 0.9 13.43
1/15/2021 6:00:00 PM 2.63 36.734 0.172 7.8 0.83 13.44
1/15/2021 6:15:00 PM 2.62 36.716 0.173 7.8 0.82 13.43
1/15/2021 6:30:00 PM 2.61 36.698 0.172 7.8 0.87 13.43
1/15/2021 6:45:00 PM 2.6 36.68 0.172 7.8 0.93 13.43
1/15/2021 7:00:00 PM 2.59 36.662 0.173 7.79 0.93 13.44
1/15/2021 7:15:00 PM 2.59 36.662 0.172 7.8 0.96 13.43
1/15/2021 7:30:00 PM 2.59 36.662 0.172 7.8 0.86 13.44
1/15/2021 7:45:00 PM 2.59 36.662 0.172 7.79 0.88 13.44
1/15/2021 8:00:00 PM 2.6 36.68 0.172 7.79 0.89 13.44
1/15/2021 8:15:00 PM 2.6 36.68 0.172 7.79 0.95 13.43
1/15/2021 8:30:00 PM 2.61 36.698 0.172 7.79 0.89 13.43
1/15/2021 8:45:00 PM 2.61 36.698 0.172 7.79 0.79 13.42
1/15/2021 9:00:00 PM 2.62 36.716 0.172 7.79 0.84 13.42
1/15/2021 9:15:00 PM 2.63 36.734 0.172 7.79 0.89 13.41
1/15/2021 9:30:00 PM 2.64 36.752 0.171 7.79 1.04 13.41
1/15/2021 9:45:00 PM 2.64 36.752 0.171 7.79 0.89 13.4
1/15/2021 10:00:00 PM 2.64 36.752 0.171 7.78 1.03 13.41
1/15/2021 10:15:00 PM 2.64 36.752 0.18 7.78 1.22 13.41
1/15/2021 10:30:00 PM 2.64 36.752 0.208 7.79 2.71 13.4
1/15/2021 10:45:00 PM 2.64 36.752 0.221 7.8 4.33 13.39
1/15/2021 11:00:00 PM 2.63 36.734 0.209 7.8 4.11 13.38
1/15/2021 11:15:00 PM 2.63 36.734 0.202 7.8 3.47 13.39
1/15/2021 11:30:00 PM 2.63 36.734 0.196 7.79 3.12 13.39
1/15/2021 11:45:00 PM 2.62 36.716 0.189 7.79 2.68 13.38
1/16/2021 12:00:00 AM 2.62 36.716 0.188 7.79 2.9 13.38
1/16/2021 12:15:00 AM 2.61 36.698 0.186 7.79 3.38 13.39
1/16/2021 12:30:00 AM 2.6 36.68 0.186 7.79 3.49 13.39
1/16/2021 12:45:00 AM 2.58 36.644 0.186 7.78 4 13.4
1/16/2021 1:00:00 AM 2.58 36.644 0.185 7.78 3.68 13.39
1/16/2021 1:15:00 AM 2.57 36.626 0.183 7.78 3.52 13.4
1/16/2021 1:30:00 AM 2.56 36.608 0.181 7.78 3.64 13.4
1/16/2021 1:45:00 AM 2.55 36.59 0.18 7.78 3.7 13.41
1/16/2021 2:00:00 AM 2.53 36.554 0.178 7.78 4.01 13.41
1/16/2021 2:15:00 AM 2.51 36.518 0.177 7.78 4.57 13.42
1/16/2021 2:30:00 AM 2.47 36.446 0.174 7.78 4.84 13.43
1/16/2021 2:45:00 AM 2.42 36.356 0.172 7.78 5.23 13.45
1/16/2021 3:00:00 AM 2.37 36.266 0.171 7.78 5.84 13.47
1/16/2021 3:15:00 AM 2.32 36.176 0.171 7.78 6.55 13.49
1/16/2021 3:30:00 AM 2.25 36.05 0.17 7.78 6.2 13.51
1/16/2021 3:45:00 AM 2.18 35.924 0.168 7.78 6.66 13.53
1/16/2021 4:00:00 AM 2.1 35.78 0.167 7.77 7.23 13.56
1/16/2021 4:15:00 AM 2.03 35.654 0.165 7.77 7.82 13.59
1/16/2021 4:30:00 AM 1.95 35.51 0.164 7.76 8.19 13.61
1/16/2021 4:45:00 AM 1.87 35.366 0.163 7.76 7.87 13.64
1/16/2021 5:00:00 AM 1.78 35.204 0.162 7.76 8.02 13.67
1/16/2021 5:15:00 AM 1.65 34.97 0.161 7.76 8.67 13.7
1/16/2021 5:30:00 AM 1.54 34.772 0.161 7.75 8.67 13.72
1/16/2021 5:45:00 AM 1.46 34.628 0.16 7.75 8.44 13.75
1/16/2021 6:00:00 AM 1.41 34.538 0.16 7.75 7.91 13.78
1/16/2021 6:15:00 AM 1.4 34.52 0.16 7.74 7.52 13.81
1/16/2021 6:30:00 AM 1.38 34.484 0.16 7.74 7.22 13.83
1/16/2021 6:45:00 AM 1.39 34.502 0.16 7.74 6.95 13.83
1/16/2021 7:00:00 AM 1.4 34.52 0.159 7.74 6.42 13.84
1/16/2021 7:15:00 AM 1.41 34.538 0.159 7.73 6.44 13.83
1/16/2021 7:30:00 AM 1.43 34.574 0.159 7.73 6.03 13.83
1/16/2021 7:45:00 AM 1.43 34.574 0.159 7.73 6.03 13.83
1/16/2021 8:00:00 AM 1.44 34.592 0.162 7.73 5.54 13.82
1/16/2021 8:15:00 AM 1.45 34.61 0.161 7.73 5.51 13.82
1/16/2021 8:30:00 AM 1.47 34.646 0.165 7.73 5.24 13.83
1/16/2021 8:45:00 AM 1.48 34.664 0.169 7.74 5.06 13.84
1/16/2021 9:00:00 AM 1.49 34.682 0.173 7.74 4.96 13.83
1/16/2021 9:15:00 AM 1.5 34.7 0.172 7.74 4.64 13.84
1/16/2021 9:30:00 AM 1.52 34.736 0.172 7.74 4.49 13.83
1/16/2021 9:45:00 AM 1.54 34.772 0.172 7.74 4.56 13.83
1/16/2021 10:00:00 AM 1.56 34.808 0.174 7.75 4.61 13.83
1/16/2021 10:15:00 AM 1.58 34.844 0.172 7.75 4.53 13.83
1/16/2021 10:30:00 AM 1.63 34.934 0.17 7.75 5.13 13.83
1/16/2021 10:45:00 AM 1.66 34.988 0.168 7.76 4.73 13.83
1/16/2021 11:00:00 AM 1.69 35.042 0.168 7.76 4.12 13.81
1/16/2021 11:15:00 AM 1.72 35.096 0.169 7.76 3.78 13.8
1/16/2021 11:30:00 AM 1.74 35.132 0.171 7.76 3.59 13.79
1/16/2021 11:45:00 AM 1.76 35.168 0.171 7.76 3.43 13.78
1/16/2021 12:00:00 PM 1.77 35.186 0.168 7.76 3.36 13.77
1/16/2021 12:15:00 PM 1.77 35.186 0.166 7.76 3.27 13.75
1/16/2021 12:30:00 PM 1.77 35.186 0.165 7.76 3.07 13.75
1/16/2021 12:45:00 PM 1.78 35.204 0.164 7.76 3.04 13.75
1/16/2021 1:00:00 PM 1.79 35.222 0.164 7.76 3.21 13.74
1/16/2021 1:15:00 PM 1.79 35.222 0.164 7.76 2.99 13.73
1/16/2021 1:30:00 PM 1.8 35.24 0.164 7.76 2.85 13.72
1/16/2021 1:45:00 PM 1.82 35.276 0.163 7.76 2.99 13.72
1/16/2021 2:00:00 PM 1.85 35.33 0.163 7.76 2.73 13.72
1/16/2021 2:15:00 PM 1.86 35.348 0.162 7.76 2.57 13.72
1/16/2021 2:30:00 PM 1.88 35.384 0.162 7.76 2.65 13.7
1/16/2021 2:45:00 PM 1.89 35.402 0.162 7.76 2.53 13.69
1/16/2021 3:00:00 PM 1.91 35.438 0.163 7.76 2.6 13.69
1/16/2021 3:15:00 PM 1.94 35.492 0.163 7.76 2.63 13.69
1/16/2021 3:30:00 PM 1.96 35.528 0.163 7.76 2.43 13.68
1/16/2021 3:45:00 PM 1.97 35.546 0.163 7.76 2.4 13.67
1/16/2021 4:00:00 PM 1.96 35.528 0.163 7.76 2.3 13.67
1/16/2021 4:15:00 PM 1.96 35.528 0.164 7.76 2.23 13.65
1/16/2021 4:30:00 PM 1.94 35.492 0.164 7.76 2.29 13.64
1/16/2021 4:45:00 PM 1.92 35.456 0.164 7.75 2.29 13.63
1/16/2021 5:00:00 PM 1.89 35.402 0.164 7.75 2.29 13.62
1/16/2021 5:15:00 PM 1.86 35.348 0.165 7.74 2.18 13.62
1/16/2021 5:30:00 PM 1.84 35.312 0.165 7.74 2.21 13.61
1/16/2021 5:45:00 PM 1.81 35.258 0.165 7.74 2.13 13.62
1/16/2021 6:00:00 PM 1.77 35.186 0.165 7.74 2.09 13.62
1/16/2021 6:15:00 PM 1.75 35.15 0.166 7.73 2.18 13.63
1/16/2021 6:30:00 PM 1.72 35.096 0.166 7.73 1.99 13.64
1/16/2021 6:45:00 PM 1.7 35.06 0.166 7.73 2.06 13.64
1/16/2021 7:00:00 PM 1.66 34.988 0.166 7.73 1.99 13.65
1/16/2021 7:15:00 PM 1.62 34.916 0.167 7.73 1.84 13.66
1/16/2021 7:30:00 PM 1.59 34.862 0.167 7.73 1.91 13.66
1/16/2021 7:45:00 PM 1.56 34.808 0.167 7.73 1.75 13.67
1/16/2021 8:00:00 PM 1.54 34.772 0.167 7.73 1.77 13.68
1/16/2021 8:15:00 PM 1.51 34.718 0.167 7.73 1.76 13.69
1/16/2021 8:30:00 PM 1.5 34.7 0.167 7.73 1.75 13.7
1/16/2021 8:45:00 PM 1.48 34.664 0.167 7.73 1.69 13.71
1/16/2021 9:00:00 PM 1.47 34.646 0.167 7.73 1.62 13.71
1/16/2021 9:15:00 PM 1.45 34.61 0.168 7.73 1.59 13.72
1/16/2021 9:30:00 PM 1.44 34.592 0.168 7.73 1.55 13.73
1/16/2021 9:45:00 PM 1.43 34.574 0.168 7.73 1.64 13.73
1/16/2021 10:00:00 PM 1.42 34.556 0.168 7.73 1.62 13.73
1/16/2021 10:15:00 PM 1.42 34.556 0.168 7.73 1.45 13.74
1/16/2021 10:30:00 PM 1.42 34.556 0.168 7.73 1.45 13.74
1/16/2021 10:45:00 PM 1.41 34.538 0.168 7.73 1.49 13.73
1/16/2021 11:00:00 PM 1.41 34.538 0.168 7.73 1.51 13.73
1/16/2021 11:15:00 PM 1.42 34.556 0.168 7.73 1.5 13.74
1/16/2021 11:30:00 PM 1.41 34.538 0.168 7.73 1.5 13.73
1/16/2021 11:45:00 PM 1.39 34.502 0.168 7.73 1.52 13.73
1/17/2021 12:00:00 AM 1.4 34.52 0.168 7.73 1.32 13.73
1/17/2021 12:15:00 AM 1.4 34.52 0.168 7.73 1.38 13.73
1/17/2021 12:30:00 AM 1.38 34.484 0.168 7.73 1.43 13.74
1/17/2021 12:45:00 AM 1.36 34.448 0.168 7.73 1.45 13.74
1/17/2021 1:00:00 AM 1.36 34.448 0.168 7.73 1.4 13.75
1/17/2021 1:15:00 AM 1.34 34.412 0.168 7.74 1.39 13.76
1/17/2021 1:30:00 AM 1.32 34.376 0.168 7.73 1.42 13.76
1/17/2021 1:45:00 AM 1.32 34.376 0.169 7.74 1.44 13.76
1/17/2021 2:00:00 AM 1.31 34.358 0.169 7.74 1.26 13.77
1/17/2021 2:15:00 AM 1.3 34.34 0.169 7.74 1.29 13.78
1/17/2021 2:30:00 AM 1.28 34.304 0.169 7.74 1.29 13.78
1/17/2021 2:45:00 AM 1.27 34.286 0.169 7.74 1.38 13.78
1/17/2021 3:00:00 AM 1.24 34.232 0.169 7.74 1.31 13.79
1/17/2021 3:15:00 AM 1.23 34.214 0.169 7.74 1.31 13.8
1/17/2021 3:30:00 AM 1.21 34.178 0.169 7.74 1.34 13.81
1/17/2021 3:45:00 AM 1.19 34.142 0.169 7.74 1.3 13.82
1/17/2021 4:00:00 AM 1.18 34.124 0.169 7.74 1.23 13.82
1/17/2021 4:15:00 AM 1.16 34.088 0.169 7.74 1.26 13.82
1/17/2021 4:30:00 AM 1.12 34.016 0.169 7.74 1.17 13.83
1/17/2021 4:45:00 AM 1.09 33.962 0.169 7.73 1.12 13.85
1/17/2021 5:00:00 AM 1.07 33.926 0.169 7.74 1.16 13.86
1/17/2021 5:15:00 AM 1.05 33.89 0.169 7.74 1.07 13.86
1/17/2021 5:30:00 AM 1.04 33.872 0.169 7.74 1.12 13.87
1/17/2021 5:45:00 AM 1.05 33.89 0.169 7.74 1.09 13.88
1/17/2021 6:00:00 AM 1.05 33.89 0.169 7.74 1.02 13.88
1/17/2021 6:15:00 AM 1.05 33.89 0.169 7.74 1.09 13.88
1/17/2021 6:30:00 AM 1.05 33.89 0.169 7.73 1.14 13.88
1/17/2021 6:45:00 AM 1.07 33.926 0.169 7.74 1.12 13.88
1/17/2021 7:00:00 AM 1.08 33.944 0.169 7.74 1.01 13.88
1/17/2021 7:15:00 AM 1.08 33.944 0.169 7.74 1.06 13.88
1/17/2021 7:30:00 AM 1.09 33.962 0.169 7.74 0.9 13.88
1/17/2021 7:45:00 AM 1.09 33.962 0.169 7.74 0.99 13.88
1/17/2021 8:00:00 AM 1.1 33.98 0.169 7.74 0.96 13.89
1/17/2021 8:15:00 AM 1.11 33.998 0.169 7.75 1.02 13.9
1/17/2021 8:30:00 AM 1.12 34.016 0.169 7.75 0.95 13.91
1/17/2021 8:45:00 AM 1.13 34.034 0.169 7.75 0.91 13.91
1/17/2021 9:00:00 AM 1.14 34.052 0.169 7.75 0.93 13.92
1/17/2021 9:15:00 AM 1.16 34.088 0.169 7.76 0.9 13.93
1/17/2021 9:30:00 AM 1.18 34.124 0.169 7.76 0.92 13.95
1/17/2021 9:45:00 AM 1.18 34.124 0.169 7.77 0.91 13.96
1/17/2021 10:00:00 AM 1.21 34.178 0.169 7.77 0.91 13.96
1/17/2021 10:15:00 AM 1.22 34.196 0.169 7.77 0.87 13.97
1/17/2021 10:30:00 AM 1.23 34.214 0.169 7.77 0.77 13.97
1/17/2021 10:45:00 AM 1.25 34.25 0.17 7.77 0.77 13.97
1/17/2021 11:00:00 AM 1.26 34.268 0.171 7.77 0.86 13.96
1/17/2021 11:15:00 AM 1.28 34.304 0.171 7.77 0.8 13.96
1/17/2021 11:30:00 AM 1.31 34.358 0.171 7.78 0.81 13.95
1/17/2021 11:45:00 AM 1.34 34.412 0.172 7.78 0.82 13.95
1/17/2021 12:00:00 PM 1.36 34.448 0.175 7.77 0.78 13.93
1/17/2021 12:15:00 PM 1.41 34.538 0.179 7.77 0.8 13.92
1/17/2021 12:30:00 PM 1.45 34.61 0.177 7.78 0.82 13.92
1/17/2021 12:45:00 PM 1.48 34.664 0.175 7.78 0.7 13.91
1/17/2021 1:00:00 PM 1.51 34.718 0.174 7.78 0.69 13.9
1/17/2021 1:15:00 PM 1.55 34.79 0.173 7.78 0.61 13.89
1/17/2021 1:30:00 PM 1.58 34.844 0.172 7.78 0.62 13.88
1/17/2021 1:45:00 PM 1.62 34.916 0.172 7.78 0.65 13.87
1/17/2021 2:00:00 PM 1.67 35.006 0.172 7.78 0.64 13.87
1/17/2021 2:15:00 PM 1.69 35.042 0.172 7.78 0.6 13.86
1/17/2021 2:30:00 PM 1.74 35.132 0.172 7.78 0.63 13.84
1/17/2021 2:45:00 PM 1.78 35.204 0.172 7.78 0.7 13.84
1/17/2021 3:00:00 PM 1.79 35.222 0.172 7.78 0.65 13.81
1/17/2021 3:15:00 PM 1.8 35.24 0.173 7.77 0.7 13.79
1/17/2021 3:30:00 PM 1.83 35.294 0.172 7.77 0.7 13.78
1/17/2021 3:45:00 PM 1.84 35.312 0.172 7.77 0.94 13.78
1/17/2021 4:00:00 PM 1.85 35.33 0.172 7.76 0.65 13.77
1/17/2021 4:15:00 PM 1.86 35.348 0.172 7.76 0.73 13.76
1/17/2021 4:30:00 PM 1.86 35.348 0.172 7.76 0.67 13.74
1/17/2021 4:45:00 PM 1.86 35.348 0.172 7.75 0.67 13.72
1/17/2021 5:00:00 PM 1.85 35.33 0.172 7.74 0.82 13.7
1/17/2021 5:15:00 PM 1.85 35.33 0.172 7.74 0.65 13.69
1/17/2021 5:30:00 PM 1.85 35.33 0.171 7.74 0.71 13.68
1/17/2021 5:45:00 PM 1.84 35.312 0.171 7.74 0.71 13.67
1/17/2021 6:00:00 PM 1.83 35.294 0.171 7.73 0.61 13.67
1/17/2021 6:15:00 PM 1.83 35.294 0.171 7.73 0.71 13.66
1/17/2021 6:30:00 PM 1.82 35.276 0.171 7.73 0.66 13.67
1/17/2021 6:45:00 PM 1.81 35.258 0.172 7.73 0.65 13.67
1/17/2021 7:00:00 PM 1.81 35.258 0.172 7.73 1.04 13.67
1/17/2021 7:15:00 PM 1.79 35.222 0.172 7.73 0.68 13.67
1/17/2021 7:30:00 PM 1.78 35.204 0.171 7.73 0.58 13.67
1/17/2021 7:45:00 PM 1.77 35.186 0.172 7.73 0.49 13.68
1/17/2021 8:00:00 PM 1.76 35.168 0.172 7.73 0.57 13.68
1/17/2021 8:15:00 PM 1.76 35.168 0.171 7.73 0.64 13.68
1/17/2021 8:30:00 PM 1.76 35.168 0.171 7.73 0.59 13.69
1/17/2021 8:45:00 PM 1.76 35.168 0.171 7.74 0.57 13.68
1/17/2021 9:00:00 PM 1.75 35.15 0.171 7.74 0.61 13.68
1/17/2021 9:15:00 PM 1.74 35.132 0.171 7.73 0.65 13.69
1/17/2021 9:30:00 PM 1.74 35.132 0.171 7.73 0.71 13.69
1/17/2021 9:45:00 PM 1.74 35.132 0.171 7.73 0.78 13.69
1/17/2021 10:00:00 PM 1.74 35.132 0.171 7.74 0.71 13.69
1/17/2021 10:15:00 PM 1.74 35.132 0.171 7.73 0.74 13.69
1/17/2021 10:30:00 PM 1.73 35.114 0.171 7.74 0.7 13.69
1/17/2021 10:45:00 PM 1.72 35.096 0.171 7.73 0.94 13.69
1/17/2021 11:00:00 PM 1.7 35.06 0.171 7.73 0.84 13.69
1/17/2021 11:15:00 PM 1.68 35.024 0.171 7.73 0.76 13.7
1/17/2021 11:30:00 PM 1.68 35.024 0.171 7.73 0.73 13.7
1/17/2021 11:45:00 PM 1.65 34.97 0.171 7.73 0.78 13.7
1/18/2021 12:00:00 AM 1.51 34.718 0.171 7.73 0.78 13.71
1/18/2021 12:15:00 AM 1.41 34.538 0.171 7.73 0.72 13.72
1/18/2021 12:30:00 AM 1.33 34.394 0.171 7.73 0.81 13.74
1/18/2021 12:45:00 AM 1.26 34.268 0.17 7.73 0.89 13.77
1/18/2021 1:00:00 AM 1.2 34.16 0.17 7.73 0.77 13.8
1/18/2021 1:15:00 AM 1.17 34.106 0.17 7.73 0.71 13.83
1/18/2021 1:30:00 AM 0.96 33.728 0.17 7.73 0.84 13.85
1/18/2021 1:45:00 AM 0.94 33.692 0.17 7.73 0.8 13.88
1/18/2021 2:00:00 AM 0.93 33.674 0.169 7.73 0.66 13.91
1/18/2021 2:15:00 AM 0.92 33.656 0.169 7.74 0.74 13.93
1/18/2021 2:30:00 AM 0.94 33.692 0.169 7.73 0.87 13.96
1/18/2021 2:45:00 AM 0.96 33.728 0.169 7.73 0.77 13.97
1/18/2021 3:00:00 AM 0.97 33.746 0.169 7.73 0.72 13.97
1/18/2021 3:15:00 AM 0.98 33.764 0.169 7.73 0.75 13.97
1/18/2021 3:30:00 AM 0.99 33.782 0.169 7.73 0.73 13.97
1/18/2021 3:45:00 AM 1.02 33.836 0.169 7.73 0.89 13.97
1/18/2021 4:00:00 AM 1.04 33.872 0.169 7.74 0.7 13.96
1/18/2021 4:15:00 AM 1.06 33.908 0.168 7.73 0.78 13.96
1/18/2021 4:30:00 AM 1.08 33.944 0.168 7.73 0.8 13.95
1/18/2021 4:45:00 AM 1.1 33.98 0.168 7.73 0.75 13.94
1/18/2021 5:00:00 AM 1.12 34.016 0.168 7.73 0.66 13.94
1/18/2021 5:15:00 AM 1.14 34.052 0.169 7.73 0.64 13.93
1/18/2021 5:30:00 AM 1.15 34.07 0.169 7.74 0.68 13.93
1/18/2021 5:45:00 AM 1.17 34.106 0.169 7.74 0.78 13.92
1/18/2021 6:00:00 AM 1.19 34.142 0.169 7.74 0.79 13.92
1/18/2021 6:15:00 AM 1.2 34.16 0.169 7.73 0.87 13.91
1/18/2021 6:30:00 AM 1.21 34.178 0.169 7.73 0.71 13.91
1/18/2021 6:45:00 AM 1.2 34.16 0.169 7.73 0.66 13.91
1/18/2021 7:00:00 AM 1.2 34.16 0.17 7.74 0.7 13.91
1/18/2021 7:15:00 AM 1.18 34.124 0.17 7.74 0.69 13.91
1/18/2021 7:30:00 AM 1.17 34.106 0.17 7.74 0.77 13.91
1/18/2021 7:45:00 AM 1.17 34.106 0.17 7.73 0.84 13.92
1/18/2021 8:00:00 AM 1.18 34.124 0.17 7.74 0.68 13.93
1/18/2021 8:15:00 AM 1.2 34.16 0.17 7.74 0.68 13.95
1/18/2021 8:30:00 AM 1.22 34.196 0.17 7.75 0.67 13.97
1/18/2021 8:45:00 AM 1.24 34.232 0.17 7.76 0.59 13.99
1/18/2021 9:00:00 AM 1.26 34.268 0.17 7.76 0.76 14.01
1/18/2021 9:15:00 AM 1.3 34.34 0.17 7.77 0.56 14.02
1/18/2021 9:30:00 AM 1.33 34.394 0.169 7.77 0.62 14.03
1/18/2021 9:45:00 AM 1.38 34.484 0.169 7.78 0.58 14.04
1/18/2021 10:00:00 AM 1.43 34.574 0.169 7.78 0.63 14.04
1/18/2021 10:15:00 AM 1.46 34.628 0.17 7.78 0.51 14.03
1/18/2021 10:30:00 AM 1.5 34.7 0.17 7.78 0.57 14.02
1/18/2021 10:45:00 AM 1.53 34.754 0.17 7.78 0.58 14.02
1/18/2021 11:00:00 AM 1.58 34.844 0.17 7.79 0.56 14.01
1/18/2021 11:15:00 AM 1.68 35.024 0.17 7.78 0.64 14
1/18/2021 11:30:00 AM 1.75 35.15 0.17 7.79 0.75 13.97
1/18/2021 11:45:00 AM 1.79 35.222 0.177 7.79 0.59 13.96
1/18/2021 12:00:00 PM 1.81 35.258 0.187 7.79 0.62 13.93
1/18/2021 12:15:00 PM 1.88 35.384 0.194 7.79 0.79 13.91
1/18/2021 12:30:00 PM 1.96 35.528 0.193 7.8 0.6 13.9
1/18/2021 12:45:00 PM 2 35.6 0.187 7.8 0.7 13.88
1/18/2021 1:00:00 PM 2.06 35.708 0.185 7.8 0.72 13.85
1/18/2021 1:15:00 PM 2.09 35.762 0.184 7.79 0.66 13.83
1/18/2021 1:30:00 PM 2.12 35.816 0.183 7.8 0.55 13.82
1/18/2021 1:45:00 PM 2.14 35.852 0.181 7.8 0.56 13.81
1/18/2021 2:00:00 PM 2.15 35.87 0.18 7.8 0.5 13.8
1/18/2021 2:15:00 PM 2.17 35.906 0.178 7.8 0.52 13.8
1/18/2021 2:30:00 PM 2.2 35.96 0.178 7.8 0.45 13.79
1/18/2021 2:45:00 PM 2.23 36.014 0.177 7.8 0.45 13.78
1/18/2021 3:00:00 PM 2.25 36.05 0.176 7.8 0.4 13.78
1/18/2021 3:15:00 PM 2.24 36.032 0.176 7.8 0.52 13.78
1/18/2021 3:30:00 PM 2.23 36.014 0.175 7.8 0.48 13.77
1/18/2021 3:45:00 PM 2.21 35.978 0.175 7.8 0.49 13.76
1/18/2021 4:00:00 PM 2.18 35.924 0.175 7.8 0.47 13.76
1/18/2021 4:15:00 PM 2.15 35.87 0.174 7.79 0.47 13.76
1/18/2021 4:30:00 PM 2.12 35.816 0.174 7.79 0.4 13.76
1/18/2021 4:45:00 PM 2.07 35.726 0.174 7.78 0.44 13.75
1/18/2021 5:00:00 PM 2.01 35.618 0.173 7.77 0.67 13.74
1/18/2021 5:15:00 PM 1.96 35.528 0.174 7.76 0.54 13.73
1/18/2021 5:30:00 PM 1.9 35.42 0.174 7.76 0.45 13.73
1/18/2021 5:45:00 PM 1.85 35.33 0.174 7.75 0.56 13.74
1/18/2021 6:00:00 PM 1.79 35.222 0.174 7.75 0.52 13.75
1/18/2021 6:15:00 PM 1.75 35.15 0.174 7.75 0.64 13.77
1/18/2021 6:30:00 PM 1.7 35.06 0.174 7.74 0.62 13.78
1/18/2021 6:45:00 PM 1.67 35.006 0.174 7.74 0.63 13.8
1/18/2021 7:00:00 PM 1.64 34.952 0.174 7.74 0.6 13.82
1/18/2021 7:15:00 PM 1.59 34.862 0.174 7.74 0.53 13.82
1/18/2021 7:30:00 PM 1.56 34.808 0.174 7.73 0.56 13.84
1/18/2021 7:45:00 PM 1.53 34.754 0.174 7.74 0.49 13.85
1/18/2021 8:00:00 PM 1.51 34.718 0.174 7.74 0.45 13.87
1/18/2021 8:15:00 PM 1.49 34.682 0.174 7.74 0.49 13.87
1/18/2021 8:30:00 PM 1.47 34.646 0.174 7.74 0.42 13.89
1/18/2021 8:45:00 PM 1.45 34.61 0.174 7.74 0.57 13.89
1/18/2021 9:00:00 PM 1.43 34.574 0.174 7.73 0.53 13.9
1/18/2021 9:15:00 PM 1.41 34.538 0.174 7.74 0.41 13.91
1/18/2021 9:30:00 PM 1.38 34.484 0.174 7.73 0.51 13.92
1/18/2021 9:45:00 PM 1.35 34.43 0.174 7.73 0.39 13.93
1/18/2021 10:00:00 PM 1.32 34.376 0.174 7.73 0.42 13.93
1/18/2021 10:15:00 PM 1.29 34.322 0.174 7.74 0.38 13.94
1/18/2021 10:30:00 PM 1.27 34.286 0.174 7.73 0.44 13.96
1/18/2021 10:45:00 PM 1.25 34.25 0.174 7.73 0.64 13.97
1/18/2021 11:00:00 PM 1.23 34.214 0.174 7.74 0.71 13.98
1/18/2021 11:15:00 PM 1.22 34.196 0.174 7.73 0.68 13.99
1/18/2021 11:30:00 PM 1.21 34.178 0.174 7.73 0.53 14
1/18/2021 11:45:00 PM 1.2 34.16 0.173 7.73 0.51 14
1/19/2021 12:00:00 AM 1.17 34.106 0.173 7.74 0.7 14.01
1/19/2021 12:15:00 AM 1.13 34.034 0.173 7.74 0.72 14.01
1/19/2021 12:30:00 AM 1.12 34.016 0.173 7.74 0.57 14.03
1/19/2021 12:45:00 AM 1.11 33.998 0.173 7.73 0.49 14.04
1/19/2021 1:00:00 AM 1.09 33.962 0.173 7.74 0.42 14.05
1/19/2021 1:15:00 AM 1.08 33.944 0.173 7.74 0.37 14.06
1/19/2021 1:30:00 AM 1.07 33.926 0.174 7.73 0.37 14.06
1/19/2021 1:45:00 AM 1.07 33.926 0.174 7.74 0.37 14.07
1/19/2021 2:00:00 AM 1.07 33.926 0.173 7.74 0.39 14.07
1/19/2021 2:15:00 AM 1.06 33.908 0.174 7.74 0.41 14.08
1/19/2021 2:30:00 AM 1.05 33.89 0.174 7.74 0.39 14.08
1/19/2021 2:45:00 AM 1.04 33.872 0.174 7.74 0.43 14.08
1/19/2021 3:00:00 AM 1.04 33.872 0.174 7.74 0.39 14.09
1/19/2021 3:15:00 AM 1.03 33.854 0.174 7.74 0.38 14.09
1/19/2021 3:30:00 AM 1 33.8 0.174 7.74 0.36 14.1
1/19/2021 3:45:00 AM 0.99 33.782 0.174 7.74 0.42 14.1
1/19/2021 4:00:00 AM 1 33.8 0.174 7.74 0.39 14.11
1/19/2021 4:15:00 AM 0.99 33.782 0.174 7.74 0.41 14.12
1/19/2021 4:30:00 AM 0.99 33.782 0.174 7.74 0.5 14.12
1/19/2021 4:45:00 AM 0.98 33.764 0.174 7.74 0.44 14.12
1/19/2021 5:00:00 AM 0.98 33.764 0.174 7.74 0.38 14.12
1/19/2021 5:15:00 AM 0.99 33.782 0.174 7.74 0.46 14.12
1/19/2021 5:30:00 AM 0.99 33.782 0.174 7.74 0.56 14.13
1/19/2021 5:45:00 AM 0.99 33.782 0.174 7.74 0.55 14.12
1/19/2021 6:00:00 AM 0.99 33.782 0.174 7.74 0.64 14.12
1/19/2021 6:15:00 AM 1 33.8 0.174 7.74 0.55 14.13
1/19/2021 6:30:00 AM 1.01 33.818 0.174 7.74 0.43 14.12
1/19/2021 6:45:00 AM 1.01 33.818 0.174 7.73 0.42 14.12
1/19/2021 7:00:00 AM 1.01 33.818 0.174 7.74 0.51 14.12
1/19/2021 7:15:00 AM 1.01 33.818 0.173 7.74 0.51 14.13
1/19/2021 7:30:00 AM 1 33.8 0.173 7.74 0.42 14.13
1/19/2021 7:45:00 AM 0.99 33.782 0.174 7.74 0.38 14.14
1/19/2021 8:00:00 AM 1.01 33.818 0.174 7.75 0.36 14.15
1/19/2021 8:15:00 AM 1.01 33.818 0.174 7.75 0.35 14.18
1/19/2021 8:30:00 AM 1.02 33.836 0.174 7.76 0.4 14.2
1/19/2021 8:45:00 AM 1.04 33.872 0.174 7.76 0.42 14.22
1/19/2021 9:00:00 AM 1.07 33.926 0.174 7.77 0.37 14.24
1/19/2021 9:15:00 AM 1.1 33.98 0.174 7.78 0.42 14.26
1/19/2021 9:30:00 AM 1.14 34.052 0.174 7.79 0.28 14.28
1/19/2021 9:45:00 AM 1.2 34.16 0.174 7.8 0.37 14.28
1/19/2021 10:00:00 AM 1.26 34.268 0.174 7.8 0.32 14.28
1/19/2021 10:15:00 AM 1.33 34.394 0.174 7.8 0.35 14.26
1/19/2021 10:30:00 AM 1.39 34.502 0.174 7.8 0.4 14.26
1/19/2021 10:45:00 AM 1.45 34.61 0.174 7.81 0.34 14.24
1/19/2021 11:00:00 AM 1.54 34.772 0.176 7.81 0.3 14.22
1/19/2021 11:15:00 AM 1.62 34.916 0.178 7.81 0.24 14.19
1/19/2021 11:30:00 AM 1.7 35.06 0.178 7.81 0.36 14.17
1/19/2021 11:45:00 AM 1.79 35.222 0.178 7.81 0.21 14.14
1/19/2021 12:00:00 PM 1.82 35.276 0.179 7.81 0.2 14.11
1/19/2021 12:15:00 PM 1.89 35.402 0.183 7.81 0.21 14.08
1/19/2021 12:30:00 PM 1.95 35.51 0.182 7.82 0.25 14.06
1/19/2021 12:45:00 PM 1.98 35.564 0.18 7.82 0.29 14.03
1/19/2021 1:00:00 PM 2.04 35.672 0.181 7.82 0.19 14.01
1/19/2021 1:15:00 PM 2.09 35.762 0.181 7.82 0.19 14
1/19/2021 1:30:00 PM 2.08 35.744 0.18 7.81 0.18 13.98
1/19/2021 1:45:00 PM 2.11 35.798 0.179 7.82 0.19 13.96
1/19/2021 2:00:00 PM 2.16 35.888 0.178 7.82 0.18 13.95
1/19/2021 2:15:00 PM 2.18 35.924 0.178 7.82 0.2 13.94
1/19/2021 2:30:00 PM 2.19 35.942 0.178 7.82 0.29 13.94
1/19/2021 2:45:00 PM 2.19 35.942 0.178 7.82 0.23 13.93
1/19/2021 3:00:00 PM 2.2 35.96 0.178 7.82 0.23 13.92
1/19/2021 3:15:00 PM 2.23 36.014 0.178 7.82 0.25 13.91
1/19/2021 3:30:00 PM 2.2 35.96 0.178 7.82 0.38 13.91
1/19/2021 3:45:00 PM 2.16 35.888 0.178 7.82 0.3 13.91
1/19/2021 4:00:00 PM 2.12 35.816 0.178 7.81 0.22 13.89
1/19/2021 4:15:00 PM 2.08 35.744 0.178 7.8 0.21 13.86
1/19/2021 4:30:00 PM 2.03 35.654 0.178 7.79 0.21 13.86
1/19/2021 4:45:00 PM 1.98 35.564 0.177 7.79 0.23 13.86
1/19/2021 5:00:00 PM 1.94 35.492 0.177 7.78 0.19 13.85
1/19/2021 5:15:00 PM 1.91 35.438 0.177 7.77 0.23 13.83
1/19/2021 5:30:00 PM 1.88 35.384 0.177 7.76 0.19 13.83
1/19/2021 5:45:00 PM 1.84 35.312 0.177 7.76 0.14 13.83
1/19/2021 6:00:00 PM 1.79 35.222 0.177 7.76 0.2 13.84
1/19/2021 6:15:00 PM 1.76 35.168 0.177 7.76 0.19 13.85
1/19/2021 6:30:00 PM 1.72 35.096 0.177 7.76 0.22 13.86
1/19/2021 6:45:00 PM 1.69 35.042 0.177 7.75 0.24 13.87
1/19/2021 7:00:00 PM 1.66 34.988 0.177 7.75 0.24 13.89
1/19/2021 7:15:00 PM 1.64 34.952 0.177 7.75 0.2 13.89
1/19/2021 7:30:00 PM 1.63 34.934 0.177 7.75 0.18 13.9
1/19/2021 7:45:00 PM 1.61 34.898 0.177 7.75 0.18 13.9
1/19/2021 8:00:00 PM 1.55 34.79 0.177 7.75 0.2 13.92
1/19/2021 8:15:00 PM 1.54 34.772 0.178 7.75 0.21 13.92
1/19/2021 8:30:00 PM 1.52 34.736 0.178 7.75 0.38 13.93
1/19/2021 8:45:00 PM 1.51 34.718 0.178 7.75 0.16 13.94
1/19/2021 9:00:00 PM 1.49 34.682 0.177 7.75 0.15 13.94
1/19/2021 9:15:00 PM 1.48 34.664 0.177 7.75 0.13 13.94
1/19/2021 9:30:00 PM 1.47 34.646 0.177 7.75 0.13 13.95
1/19/2021 9:45:00 PM 1.44 34.592 0.177 7.75 0.13 13.95
1/19/2021 10:00:00 PM 1.43 34.574 0.177 7.75 0.11 13.95
1/19/2021 10:15:00 PM 1.41 34.538 0.177 7.75 0.14 13.96
1/19/2021 10:30:00 PM 1.4 34.52 0.177 7.75 0.19 13.96
1/19/2021 10:45:00 PM 1.4 34.52 0.177 7.75 0.16 13.96
1/19/2021 11:00:00 PM 1.38 34.484 0.177 7.75 0.19 13.97
1/19/2021 11:15:00 PM 1.35 34.43 0.177 7.75 0.19 13.97
1/19/2021 11:30:00 PM 1.32 34.376 0.177 7.75 0.18 13.98
1/19/2021 11:45:00 PM 1.28 34.304 0.177 7.75 0.18 13.98
1/20/2021 12:00:00 AM 1.25 34.25 0.177 7.75 0.17 13.99
1/20/2021 12:15:00 AM 1.24 34.232 0.177 7.75 0.21 13.99
1/20/2021 12:30:00 AM 1.24 34.232 0.177 7.75 0.12 14
1/20/2021 12:45:00 AM 1.23 34.214 0.177 7.75 0.16 14
1/20/2021 1:00:00 AM 1.22 34.196 0.177 7.75 0.13 14
1/20/2021 1:15:00 AM 1.2 34.16 0.177 7.75 0.15 14.02
1/20/2021 1:30:00 AM 1.2 34.16 0.177 7.75 0.19 14.01
1/20/2021 1:45:00 AM 1.18 34.124 0.177 7.75 0.22 14.01
1/20/2021 2:00:00 AM 1.17 34.106 0.177 7.76 0.15 14.02
1/20/2021 2:15:00 AM 1.14 34.052 0.178 7.75 0.16 14.02
1/20/2021 2:30:00 AM 1.12 34.016 0.178 7.75 0.2 14.03
1/20/2021 2:45:00 AM 1.1 33.98 0.178 7.75 0.25 14.03
1/20/2021 3:00:00 AM 1.08 33.944 0.177 7.75 0.33 14.04
1/20/2021 3:15:00 AM 1 33.8 0.177 7.75 0.3 14.04
1/20/2021 3:30:00 AM 0.97 33.746 0.177 7.75 0.24 14.05
1/20/2021 3:45:00 AM 0.96 33.728 0.177 7.75 0.22 14.06
1/20/2021 4:00:00 AM 0.94 33.692 0.177 7.75 0.24 14.08
1/20/2021 4:15:00 AM 0.92 33.656 0.177 7.75 0.2 14.09
1/20/2021 4:30:00 AM 0.92 33.656 0.177 7.75 0.17 14.09
1/20/2021 4:45:00 AM 0.92 33.656 0.177 7.75 0.22 14.1
1/20/2021 5:00:00 AM 0.91 33.638 0.177 7.75 0.23 14.1
1/20/2021 5:15:00 AM 0.9 33.62 0.177 7.75 0.16 14.11
1/20/2021 5:30:00 AM 0.9 33.62 0.177 7.74 0.15 14.12
1/20/2021 5:45:00 AM 0.87 33.566 0.176 7.75 0.27 14.12
1/20/2021 6:00:00 AM 0.86 33.548 0.176 7.75 0.45 14.13
1/20/2021 6:15:00 AM 0.85 33.53 0.176 7.75 0.38 14.13
1/20/2021 6:30:00 AM 0.83 33.494 0.176 7.75 0.36 14.14
1/20/2021 6:45:00 AM 0.83 33.494 0.176 7.75 0.39 14.14
1/20/2021 7:00:00 AM 0.81 33.458 0.177 7.75 0.32 14.15
1/20/2021 7:15:00 AM 0.8 33.44 0.177 7.75 0.32 14.16
1/20/2021 7:30:00 AM 0.77 33.386 0.177 7.75 0.34 14.17
1/20/2021 7:45:00 AM 0.75 33.35 0.177 7.75 0.35 14.19
1/20/2021 8:00:00 AM 0.72 33.296 0.177 7.76 0.43 14.23
1/20/2021 8:15:00 AM 0.69 33.242 0.177 7.77 0.36 14.28
1/20/2021 8:30:00 AM 0.68 33.224 0.177 7.79 0.26 14.32
1/20/2021 8:45:00 AM 0.66 33.188 0.177 7.79 0.35 14.35
1/20/2021 9:00:00 AM 0.67 33.206 0.177 7.8 0.24 14.39
1/20/2021 9:15:00 AM 0.69 33.242 0.177 7.81 0.2 14.42
1/20/2021 9:30:00 AM 0.7 33.26 0.177 7.81 0.23 14.44
1/20/2021 9:45:00 AM 0.72 33.296 0.177 7.82 0.23 14.44
1/20/2021 10:00:00 AM 0.72 33.296 0.177 7.82 0.22 14.45
1/20/2021 10:15:00 AM 0.69 33.242 0.176 7.83 0.21 14.45
1/20/2021 10:30:00 AM 0.74 33.332 0.176 7.82 0.24 14.46
1/20/2021 10:45:00 AM 0.84 33.512 0.177 7.83 0.19 14.45
1/20/2021 11:00:00 AM 0.91 33.638 0.177 7.83 0.11 14.45
1/20/2021 11:15:00 AM 1 33.8 0.177 7.83 0.15 14.44
1/20/2021 11:30:00 AM 1.06 33.908 0.178 7.83 0.06 14.42
1/20/2021 11:45:00 AM 1.1 33.98 0.187 7.83 0.2 14.41
1/20/2021 12:00:00 PM 1.17 34.106 0.205 7.83 0.22 14.38
1/20/2021 12:15:00 PM 1.18 34.124 0.217 7.84 0.28 14.37
1/20/2021 12:30:00 PM 1.21 34.178 0.21 7.84 0.23 14.35
1/20/2021 12:45:00 PM 1.15 34.07 0.202 7.84 0.2 14.36
1/20/2021 1:00:00 PM 1.12 34.016 0.197 7.84 0.2 14.36
1/20/2021 1:15:00 PM 1.07 33.926 0.193 7.84 0.14 14.36
1/20/2021 1:30:00 PM 1.05 33.89 0.19 7.84 0.08 14.37
1/20/2021 1:45:00 PM 1.03 33.854 0.187 7.84 0.11 14.39
1/20/2021 2:00:00 PM 1.09 33.962 0.186 7.84 0.08 14.39
1/20/2021 2:15:00 PM 1.08 33.944 0.185 7.84 0.1 14.39
1/20/2021 2:30:00 PM 1.13 34.034 0.184 7.84 0.1 14.39
1/20/2021 2:45:00 PM 1.06 33.908 0.184 7.84 0.11 14.39
1/20/2021 3:00:00 PM 0.99 33.782 0.183 7.84 0.06 14.4
1/20/2021 3:15:00 PM 0.9 33.62 0.183 7.84 0.13 14.42
1/20/2021 3:30:00 PM 0.88 33.584 0.182 7.84 0.04 14.45
1/20/2021 3:45:00 PM 0.8 33.44 0.182 7.84 0.09 14.46
1/20/2021 4:00:00 PM 0.75 33.35 0.182 7.84 0.09 14.48
1/20/2021 4:15:00 PM 0.72 33.296 0.182 7.83 0.12 14.49
1/20/2021 4:30:00 PM 0.69 33.242 0.181 7.83 0.03 14.48
1/20/2021 4:45:00 PM 0.65 33.17 0.181 7.82 0.38 14.46
1/20/2021 5:00:00 PM 0.59 33.062 0.181 7.81 0.18 14.44
1/20/2021 5:15:00 PM 0.53 32.954 0.181 7.8 0.04 14.42
1/20/2021 5:30:00 PM 0.48 32.864 0.181 7.78 0.01 14.4
1/20/2021 5:45:00 PM 0.42 32.756 0.181 7.78 0.01 14.41
1/20/2021 6:00:00 PM 0.36 32.648 0.181 7.78 0.04 14.42
1/20/2021 6:15:00 PM 0.3 32.54 0.181 7.77 0.02 14.43
1/20/2021 6:30:00 PM 0.24 32.432 0.181 7.77 0.04 14.45
1/20/2021 6:45:00 PM 0.19 32.342 0.181 7.77 0.07 14.47
1/20/2021 7:00:00 PM 0.14 32.252 0.181 7.76 0.05 14.46
1/20/2021 7:15:00 PM 0.09 32.162 0.181 7.76 0.04 14.49
1/20/2021 7:30:00 PM 0.04 32.072 0.181 7.76 0.09 14.49
1/20/2021 7:45:00 PM 0.01 32.018 0.181 7.76 0.19 14.51
1/20/2021 8:00:00 PM 0 32 0.181 7.76 0.14 14.52
1/20/2021 8:15:00 PM 0 32 0.181 7.75 0.13 14.52
1/20/2021 8:30:00 PM 0 32 0.182 7.75 0.15 14.53
1/20/2021 8:45:00 PM 0.01 32.018 0.183 7.75 0.14 14.53
1/20/2021 9:00:00 PM 0.02 32.036 0.184 7.75 0.14 14.52
1/20/2021 9:15:00 PM 0.03 32.054 0.184 7.75 0.15 14.53
1/20/2021 9:30:00 PM 0.03 32.054 0.185 7.75 0.18 14.52
1/20/2021 9:45:00 PM 0.03 32.054 0.186 7.75 0.19 14.52
1/20/2021 10:00:00 PM 0.03 32.054 0.187 7.75 0.19 14.52
1/20/2021 10:15:00 PM 0.04 32.072 0.188 7.75 0.21 14.51
1/20/2021 10:30:00 PM 0.04 32.072 0.188 7.75 0.16 14.5
1/20/2021 10:45:00 PM 0.04 32.072 0.189 7.75 0.18 14.49
1/20/2021 11:00:00 PM 0.04 32.072 0.19 7.75 0.2 14.5
1/20/2021 11:15:00 PM 0.04 32.072 0.191 7.76 0.29 14.49
1/20/2021 11:30:00 PM 0.04 32.072 0.192 7.76 0.14 14.47
1/20/2021 11:45:00 PM 0.04 32.072 0.193 7.76 0.16 14.47
1/21/2021 12:00:00 AM 0.04 32.072 0.194 7.76 0.24 14.47
1/21/2021 12:15:00 AM 0.04 32.072 0.194 7.76 0.3 14.46
1/21/2021 12:30:00 AM 0.03 32.054 0.195 7.76 0.33 14.46
1/21/2021 12:45:00 AM 0.03 32.054 0.195 7.76 0.34 14.47
1/21/2021 1:00:00 AM 0.03 32.054 0.196 7.76 0.38 14.46
1/21/2021 1:15:00 AM 0.03 32.054 0.196 7.76 0.41 14.46
1/21/2021 1:30:00 AM 0.03 32.054 0.194 7.76 0.4 14.48
1/21/2021 1:45:00 AM 0.03 32.054 0.197 7.76 0.33 14.47
1/21/2021 2:00:00 AM 0.03 32.054 0.197 7.76 0.31 14.47
1/21/2021 2:15:00 AM 0.03 32.054 0.197 7.76 0.3 14.49
1/21/2021 2:30:00 AM 0.03 32.054 0.199 7.76 0.27 14.47
1/21/2021 2:45:00 AM 0.04 32.072 0.199 7.76 0.3 14.47
1/21/2021 3:00:00 AM 0.04 32.072 0.199 7.76 0.3 14.46
1/21/2021 3:15:00 AM 0.05 32.09 0.2 7.76 0.33 14.46
1/21/2021 3:30:00 AM 0.04 32.072 0.201 7.76 0.26 14.45
1/21/2021 3:45:00 AM 0.04 32.072 0.201 7.76 0.3 14.45
1/21/2021 4:00:00 AM 0.05 32.09 0.201 7.76 0.33 14.43
1/21/2021 4:15:00 AM 0.05 32.09 0.201 7.76 0.42 14.42
1/21/2021 4:30:00 AM 0.06 32.108 0.202 7.77 0.35 14.42
1/21/2021 4:45:00 AM 0.05 32.09 0.202 7.77 0.48 14.4
1/21/2021 5:00:00 AM 0.05 32.09 0.202 7.77 0.42 14.39
1/21/2021 5:15:00 AM 0.05 32.09 0.201 7.77 0.35 14.39
1/21/2021 5:30:00 AM 0.05 32.09 0.201 7.77 0.33 14.38
1/21/2021 5:45:00 AM 0.05 32.09 0.201 7.77 0.33 14.36
1/21/2021 6:00:00 AM 0.04 32.072 0.201 7.77 0.42 14.35
1/21/2021 6:15:00 AM 0.04 32.072 0.2 7.77 0.38 14.35
1/21/2021 6:30:00 AM 0.04 32.072 0.2 7.78 0.43 14.35
1/21/2021 6:45:00 AM 0.04 32.072 0.2 7.78 0.4 14.34
1/21/2021 7:00:00 AM 0.04 32.072 0.2 7.78 0.32 14.35
1/21/2021 7:15:00 AM 0.04 32.072 0.2 7.78 0.35 14.35
1/21/2021 7:30:00 AM 0.04 32.072 0.2 7.78 0.35 14.33
1/21/2021 7:45:00 AM 0.04 32.072 0.2 7.78 0.33 14.34
1/21/2021 8:00:00 AM 0.04 32.072 0.199 7.78 0.33 14.34
1/21/2021 8:15:00 AM 0.04 32.072 0.199 7.78 0.34 14.34
1/21/2021 8:30:00 AM 0.04 32.072 0.199 7.78 0.33 14.36
1/21/2021 8:45:00 AM 0.04 32.072 0.199 7.79 0.35 14.36
1/21/2021 9:00:00 AM 0.04 32.072 0.198 7.79 0.33 14.38
1/21/2021 9:15:00 AM 0.04 32.072 0.198 7.8 0.4 14.4
1/21/2021 9:30:00 AM 0.04 32.072 0.197 7.81 0.36 14.43
1/21/2021 9:45:00 AM 0.04 32.072 0.197 7.82 0.49 14.46
1/21/2021 10:00:00 AM 0.04 32.072 0.196 7.83 0.52 14.47
1/21/2021 10:15:00 AM 0.04 32.072 0.196 7.84 0.64 14.49
1/21/2021 10:30:00 AM 0.05 32.09 0.195 7.84 0.58 14.48
1/21/2021 10:45:00 AM 0.05 32.09 0.194 7.85 0.6 14.48
1/21/2021 11:00:00 AM 0.06 32.108 0.193 7.86 0.68 14.49
1/21/2021 11:15:00 AM 0.12 32.216 0.193 7.85 0.81 14.49
1/21/2021 11:30:00 AM 0.18 32.324 0.192 7.86 0.65 14.48
1/21/2021 11:45:00 AM 0.22 32.396 0.191 7.86 0.6 14.5
1/21/2021 12:00:00 PM 0.25 32.45 0.19 7.86 0.63 14.48
1/21/2021 12:15:00 PM 0.26 32.468 0.189 7.86 0.72 14.48
1/21/2021 12:30:00 PM 0.29 32.522 0.188 7.86 0.76 14.47
1/21/2021 12:45:00 PM 0.34 32.612 0.187 7.86 0.76 14.47
1/21/2021 1:00:00 PM 0.39 32.702 0.186 7.86 0.99 14.46
1/21/2021 1:15:00 PM 0.42 32.756 0.185 7.85 0.95 14.46
1/21/2021 1:30:00 PM 0.45 32.81 0.184 7.85 1.05 14.45
1/21/2021 1:45:00 PM 0.47 32.846 0.183 7.85 1.18 14.43
1/21/2021 2:00:00 PM 0.48 32.864 0.182 7.85 1.12 14.44
1/21/2021 2:15:00 PM 0.51 32.918 0.182 7.85 1.12 14.43
1/21/2021 2:30:00 PM 0.57 33.026 0.181 7.85 1.21 14.41
1/21/2021 2:45:00 PM 0.62 33.116 0.181 7.85 1.18 14.41
1/21/2021 3:00:00 PM 0.64 33.152 0.18 7.85 1.32 14.4
1/21/2021 3:15:00 PM 0.65 33.17 0.179 7.85 1.29 14.39
1/21/2021 3:30:00 PM 0.66 33.188 0.179 7.84 1.27 14.37
1/21/2021 3:45:00 PM 0.67 33.206 0.179 7.84 1.23 14.36
1/21/2021 4:00:00 PM 0.67 33.206 0.179 7.83 1.26 14.33
1/21/2021 4:15:00 PM 0.66 33.188 0.178 7.82 1.3 14.3
1/21/2021 4:30:00 PM 0.66 33.188 0.177 7.81 1.31 14.27
1/21/2021 4:45:00 PM 0.66 33.188 0.177 7.8 1.32 14.23
1/21/2021 5:00:00 PM 0.65 33.17 0.176 7.79 1.31 14.22
1/21/2021 5:15:00 PM 0.64 33.152 0.176 7.78 1.26 14.19
1/21/2021 5:30:00 PM 0.63 33.134 0.176 7.77 1.22 14.18
1/21/2021 5:45:00 PM 0.62 33.116 0.175 7.77 1.33 14.16
1/21/2021 6:00:00 PM 0.61 33.098 0.175 7.76 1.33 14.16
1/21/2021 6:15:00 PM 0.6 33.08 0.175 7.76 1.29 14.16
1/21/2021 6:30:00 PM 0.59 33.062 0.175 7.76 1.25 14.16
1/21/2021 6:45:00 PM 0.58 33.044 0.175 7.75 1.09 14.16
1/21/2021 7:00:00 PM 0.58 33.044 0.175 7.76 1.06 14.16
1/21/2021 7:15:00 PM 0.58 33.044 0.175 7.75 1.12 14.15
1/21/2021 7:30:00 PM 0.58 33.044 0.175 7.75 0.99 14.14
1/21/2021 7:45:00 PM 0.57 33.026 0.175 7.76 0.95 14.14
1/21/2021 8:00:00 PM 0.57 33.026 0.175 7.76 0.84 14.15
1/21/2021 8:15:00 PM 0.58 33.044 0.174 7.75 0.93 14.14
1/21/2021 8:30:00 PM 0.58 33.044 0.174 7.75 0.83 14.13
1/21/2021 8:45:00 PM 0.58 33.044 0.174 7.76 0.73 14.13
1/21/2021 9:00:00 PM 0.58 33.044 0.174 7.75 0.75 14.12
1/21/2021 9:15:00 PM 0.56 33.008 0.174 7.75 0.78 14.12
1/21/2021 9:30:00 PM 0.55 32.99 0.174 7.75 0.81 14.11
1/21/2021 9:45:00 PM 0.56 33.008 0.174 7.75 0.71 14.11
1/21/2021 10:00:00 PM 0.58 33.044 0.174 7.75 0.74 14.11
1/21/2021 10:15:00 PM 0.58 33.044 0.174 7.75 1.85 14.11
1/21/2021 10:30:00 PM 0.59 33.062 0.173 7.75 1.65 14.11
1/21/2021 10:45:00 PM 0.61 33.098 0.173 7.75 1.75 14.11
1/21/2021 11:00:00 PM 0.62 33.116 0.174 7.75 1.47 14.1
1/21/2021 11:15:00 PM 0.63 33.134 0.174 7.75 1.64 14.1
1/21/2021 11:30:00 PM 0.63 33.134 0.174 7.75 1.63 14.1
1/21/2021 11:45:00 PM 0.59 33.062 0.174 7.75 1.65 14.1
1/22/2021 12:00:00 AM 0.6 33.08 0.174 7.75 1.56 14.09
1/22/2021 12:15:00 AM 0.58 33.044 0.174 7.75 1.56 14.09
1/22/2021 12:30:00 AM 0.6 33.08 0.174 7.75 1.62 14.09
1/22/2021 12:45:00 AM 0.57 33.026 0.174 7.75 0.48 14.09
1/22/2021 1:00:00 AM 0.44 32.792 0.174 7.75 0.44 14.08
1/22/2021 1:15:00 AM 0.41 32.738 0.174 7.75 0.42 14.1
1/22/2021 1:30:00 AM 0.2 32.36 0.174 7.75 0.5 14.1
1/22/2021 1:45:00 AM 0.17 32.306 0.174 7.75 0.47 14.15
1/22/2021 2:00:00 AM 0.19 32.342 0.174 7.76 0.45 14.17
1/22/2021 2:15:00 AM 0.23 32.414 0.174 7.76 0.5 14.2
1/22/2021 2:30:00 AM 0.26 32.468 0.174 7.76 0.55 14.21
1/22/2021 2:45:00 AM 0.31 32.558 0.174 7.76 0.57 14.22
1/22/2021 3:00:00 AM 0.37 32.666 0.175 7.76 0.53 14.21
1/22/2021 3:15:00 AM 0.41 32.738 0.175 7.75 0.66 14.19
1/22/2021 3:30:00 AM 0.43 32.774 0.175 7.76 0.82 14.18
1/22/2021 3:45:00 AM 0.45 32.81 0.175 7.76 0.73 14.17
1/22/2021 4:00:00 AM 0.47 32.846 0.175 7.76 0.73 14.18
1/22/2021 4:15:00 AM 0.49 32.882 0.175 7.76 0.8 14.16
1/22/2021 4:30:00 AM 0.51 32.918 0.175 7.76 0.83 14.16
1/22/2021 4:45:00 AM 0.52 32.936 0.175 7.76 0.66 14.15
1/22/2021 5:00:00 AM 0.54 32.972 0.176 7.76 0.6 14.15
1/22/2021 5:15:00 AM 0.56 33.008 0.176 7.76 0.48 14.14
1/22/2021 5:30:00 AM 0.58 33.044 0.176 7.76 0.43 14.13
1/22/2021 5:45:00 AM 0.59 33.062 0.176 7.76 0.38 14.13
1/22/2021 6:00:00 AM 0.61 33.098 0.177 7.77 0.35 14.12
1/22/2021 6:15:00 AM 0.62 33.116 0.177 7.76 0.39 14.12
1/22/2021 6:30:00 AM 0.63 33.134 0.177 7.76 0.33 14.11
1/22/2021 6:45:00 AM 0.65 33.17 0.177 7.76 0.26 14.11
1/22/2021 7:00:00 AM 0.66 33.188 0.177 7.76 0.29 14.11
1/22/2021 7:15:00 AM 0.66 33.188 0.178 7.76 0.29 14.11
1/22/2021 7:30:00 AM 0.66 33.188 0.178 7.76 0.38 14.12
1/22/2021 7:45:00 AM 0.67 33.206 0.178 7.77 0.31 14.13
1/22/2021 8:00:00 AM 0.69 33.242 0.178 7.77 0.29 14.14
1/22/2021 8:15:00 AM 0.71 33.278 0.178 7.78 0.21 14.17
1/22/2021 8:30:00 AM 0.74 33.332 0.178 7.79 0.21 14.21
1/22/2021 8:45:00 AM 0.78 33.404 0.178 7.8 0.22 14.25
1/22/2021 9:00:00 AM 0.81 33.458 0.178 7.81 0.26 14.27
1/22/2021 9:15:00 AM 0.85 33.53 0.178 7.82 0.22 14.29
1/22/2021 9:30:00 AM 0.88 33.584 0.178 7.83 0.21 14.29
1/22/2021 9:45:00 AM 0.91 33.638 0.178 7.83 0.21 14.3
1/22/2021 10:00:00 AM 0.92 33.656 0.178 7.84 0.28 14.29
1/22/2021 10:15:00 AM 0.89 33.602 0.177 7.84 0.26 14.3
1/22/2021 10:30:00 AM 0.91 33.638 0.178 7.85 0.23 14.29
1/22/2021 10:45:00 AM 0.94 33.692 0.178 7.84 0.27 14.3
1/22/2021 11:00:00 AM 0.97 33.746 0.178 7.85 0.18 14.3
1/22/2021 11:15:00 AM 1.03 33.854 0.178 7.85 0.19 14.3
1/22/2021 11:30:00 AM 1.11 33.998 0.178 7.86 0.2 14.3
1/22/2021 11:45:00 AM 1.21 34.178 0.178 7.86 0.17 14.28
1/22/2021 12:00:00 PM 1.23 34.214 0.183 7.85 0.2 14.26
1/22/2021 12:15:00 PM 1.25 34.25 0.186 7.85 0.23 14.24
1/22/2021 12:30:00 PM 1.25 34.25 0.186 7.85 0.16 14.22
1/22/2021 12:45:00 PM 1.32 34.376 0.192 7.86 0.18 14.22
1/22/2021 1:00:00 PM 1.43 34.574 0.19 7.86 0.19 14.2
1/22/2021 1:15:00 PM 1.51 34.718 0.187 7.86 0.19 14.19
1/22/2021 1:30:00 PM 1.5 34.7 0.186 7.86 0.2 14.18
1/22/2021 1:45:00 PM 1.46 34.628 0.185 7.86 0.13 14.15
1/22/2021 2:00:00 PM 1.39 34.502 0.187 7.86 0.12 14.13
1/22/2021 2:15:00 PM 1.38 34.484 0.186 7.86 0.13 14.15
1/22/2021 2:30:00 PM 1.38 34.484 0.184 7.87 0.14 14.16
1/22/2021 2:45:00 PM 1.38 34.484 0.183 7.86 0.15 14.18
1/22/2021 3:00:00 PM 1.37 34.466 0.183 7.86 0.2 14.19
1/22/2021 3:15:00 PM 1.37 34.466 0.185 7.86 0.14 14.2
1/22/2021 3:30:00 PM 1.3 34.34 0.188 7.85 0.3 14.18
1/22/2021 3:45:00 PM 1.28 34.304 0.188 7.85 0.23 14.18
1/22/2021 4:00:00 PM 1.25 34.25 0.187 7.85 0.2 14.19
1/22/2021 4:15:00 PM 1.22 34.196 0.186 7.85 0.18 14.2
1/22/2021 4:30:00 PM 1.19 34.142 0.184 7.84 0.19 14.2
1/22/2021 4:45:00 PM 1.15 34.07 0.183 7.83 0.28 14.18
1/22/2021 5:00:00 PM 1.11 33.998 0.182 7.82 0.16 14.15
1/22/2021 5:15:00 PM 1.01 33.818 0.182 7.8 0.17 14.12
1/22/2021 5:30:00 PM 0.97 33.746 0.182 7.79 0.19 14.11
1/22/2021 5:45:00 PM 0.91 33.638 0.182 7.78 0.22 14.12
1/22/2021 6:00:00 PM 0.86 33.548 0.182 7.78 0.19 14.13
1/22/2021 6:15:00 PM 0.81 33.458 0.181 7.78 0.15 14.14
1/22/2021 6:30:00 PM 0.78 33.404 0.181 7.77 0.16 14.15
1/22/2021 6:45:00 PM 0.73 33.314 0.181 7.77 0.22 14.17
1/22/2021 7:00:00 PM 0.69 33.242 0.181 7.77 0.21 14.18
1/22/2021 7:15:00 PM 0.66 33.188 0.181 7.77 0.18 14.19
1/22/2021 7:30:00 PM 0.63 33.134 0.181 7.76 0.2 14.21
1/22/2021 7:45:00 PM 0.6 33.08 0.181 7.77 0.24 14.21
1/22/2021 8:00:00 PM 0.57 33.026 0.181 7.76 0.3 14.24
1/22/2021 8:15:00 PM 0.52 32.936 0.182 7.76 0.31 14.25
1/22/2021 8:30:00 PM 0.45 32.81 0.182 7.77 0.3 14.27
1/22/2021 8:45:00 PM 0.41 32.738 0.182 7.76 0.3 14.28
1/22/2021 9:00:00 PM 0.35 32.63 0.182 7.76 0.28 14.31
1/22/2021 9:15:00 PM 0.32 32.576 0.182 7.77 0.29 14.31
1/22/2021 9:30:00 PM 0.31 32.558 0.182 7.76 0.28 14.33
1/22/2021 9:45:00 PM 0.29 32.522 0.182 7.77 0.32 14.34
1/22/2021 10:00:00 PM 0.28 32.504 0.182 7.77 0.24 14.35
1/22/2021 10:15:00 PM 0.26 32.468 0.182 7.77 0.26 14.36
1/22/2021 10:30:00 PM 0.23 32.414 0.182 7.77 0.27 14.38
1/22/2021 10:45:00 PM 0.21 32.378 0.182 7.76 0.33 14.38
1/22/2021 11:00:00 PM 0.17 32.306 0.182 7.77 0.26 14.39
1/22/2021 11:15:00 PM 0.14 32.252 0.182 7.76 0.24 14.42
1/22/2021 11:30:00 PM 0.12 32.216 0.182 7.77 0.24 14.42
1/22/2021 11:45:00 PM 0.09 32.162 0.182 7.76 0.25 14.44
1/23/2021 12:00:00 AM 0.05 32.09 0.182 7.77 0.26 14.46
1/23/2021 12:15:00 AM 0.01 32.018 0.182 7.77 0.36 14.46
1/23/2021 12:30:00 AM 0.01 32.018 0.183 7.77 0.42 14.47
1/23/2021 12:45:00 AM 0.01 32.018 0.183 7.77 0.55 14.49
1/23/2021 1:00:00 AM 0.01 32.018 0.183 7.77 0.4 14.48
1/23/2021 1:15:00 AM 0.01 32.018 0.184 7.77 0.43 14.5
1/23/2021 1:30:00 AM 0.01 32.018 0.184 7.77 0.49 14.49
1/23/2021 1:45:00 AM 0.01 32.018 0.184 7.77 0.43 14.49
1/23/2021 2:00:00 AM 0.02 32.036 0.185 7.77 0.41 14.5
1/23/2021 2:15:00 AM 0.02 32.036 0.185 7.77 0.47 14.49
1/23/2021 2:30:00 AM 0.01 32.018 0.185 7.77 0.44 14.5
1/23/2021 2:45:00 AM 0.01 32.018 0.186 7.77 0.41 14.51
1/23/2021 3:00:00 AM 0.02 32.036 0.186 7.77 0.41 14.52
1/23/2021 3:15:00 AM 0.01 32.018 0.186 7.77 0.39 14.51
1/23/2021 3:30:00 AM 0.01 32.018 0.186 7.77 0.37 14.52
1/23/2021 3:45:00 AM 0.01 32.018 0.186 7.77 0.44 14.53
1/23/2021 4:00:00 AM 0 32 0.186 7.77 0.51 14.52
1/23/2021 4:15:00 AM -0.01 31.982 0.187 7.77 0.54 14.52
1/23/2021 4:30:00 AM -0.01 31.982 0.186 7.76 15.5 14.52
1/23/2021 4:45:00 AM -0.01 31.982 0.182 7.77 45.18 14.52
1/23/2021 5:00:00 AM -0.01 31.982 0.178 7.78 38.77 14.52
1/23/2021 5:15:00 AM -0.01 31.982 0.183 7.78 31.23 14.52
1/23/2021 5:30:00 AM -0.01 31.982 0.175 7.78 36.57 14.53
1/23/2021 5:45:00 AM -0.02 31.964 0.17 7.79 37.02 14.53
1/23/2021 6:00:00 AM -0.02 31.964 0.16 7.78 39.04 14.53
1/23/2021 6:15:00 AM -0.01 31.982 0.162 7.79 35.05 14.53
1/23/2021 6:30:00 AM -0.01 31.982 0.181 7.77 32.94 14.52
1/23/2021 6:45:00 AM 0.01 32.018 0.189 7.78 0.61 14.53
1/23/2021 7:00:00 AM 0.01 32.018 0.189 7.78 0.57 14.52
1/23/2021 7:15:00 AM 0.01 32.018 0.189 7.78 0.64 14.52
1/23/2021 7:30:00 AM 0.01 32.018 0.189 7.78 0.6 14.54
1/23/2021 7:45:00 AM 0.02 32.036 0.19 7.79 0.66 14.56
1/23/2021 8:00:00 AM 0.01 32.018 0.19 7.79 0.68 14.61
1/23/2021 8:15:00 AM 0 32 0.19 7.81 0.61 14.67
1/23/2021 8:30:00 AM 0 32 0.187 7.81 18.1 14.72
1/23/2021 8:45:00 AM -0.01 31.982 0.189 7.83 14.48 14.75
1/23/2021 9:00:00 AM -0.02 31.964 0.17 7.85 13.95 14.78
1/23/2021 9:15:00 AM -0.01 31.982 0.189 7.84 16.68 14.8
1/23/2021 9:30:00 AM -0.01 31.982 0.187 7.85 14.42 14.83
1/23/2021 9:45:00 AM 0 32 0.19 7.86 4.89 14.84
1/23/2021 10:00:00 AM 0.02 32.036 0.191 7.86 0.5 14.85
1/23/2021 10:15:00 AM 0.02 32.036 0.191 7.87 0.49 14.85
1/23/2021 10:30:00 AM 0.04 32.072 0.191 7.87 0.53 14.86
1/23/2021 10:45:00 AM 0.01 32.018 0.191 7.88 0.67 14.86
1/23/2021 11:00:00 AM 0.01 32.018 0.19 7.87 2.76 14.85
1/23/2021 11:15:00 AM 0.04 32.072 0.191 7.81 0.61 14.85
1/23/2021 11:30:00 AM 0.06 32.108 0.19 7.83 0.73 14.84
1/23/2021 11:45:00 AM 0.08 32.144 0.189 7.84 0.6 14.84
1/23/2021 12:00:00 PM 0.1 32.18 0.189 7.85 0.55 14.84
1/23/2021 12:15:00 PM 0.14 32.252 0.189 7.86 0.46 14.85
1/23/2021 12:30:00 PM 0.14 32.252 0.188 7.86 0.51 14.85
1/23/2021 12:45:00 PM 0.14 32.252 0.188 7.87 0.58 14.85
1/23/2021 1:00:00 PM 0.17 32.306 0.187 7.87 0.53 14.85
1/23/2021 1:15:00 PM 0.22 32.396 0.187 7.87 0.53 14.85
1/23/2021 1:30:00 PM 0.21 32.378 0.187 7.88 0.52 14.83
1/23/2021 1:45:00 PM 0.22 32.396 0.186 7.87 0.5 14.84
1/23/2021 2:00:00 PM 0.26 32.468 0.186 7.87 0.54 14.84
1/23/2021 2:15:00 PM 0.3 32.54 0.186 7.88 0.42 14.83
1/23/2021 2:30:00 PM 0.22 32.396 0.187 7.87 0.44 14.84
1/23/2021 2:45:00 PM 0.27 32.486 0.188 7.87 0.44 14.84
1/23/2021 3:00:00 PM 0.29 32.522 0.191 7.87 0.47 14.84
1/23/2021 3:15:00 PM 0.18 32.324 0.19 7.86 0.47 14.85
1/23/2021 3:30:00 PM 0.13 32.234 0.189 7.86 0.39 14.87
1/23/2021 3:45:00 PM 0.07 32.126 0.189 7.86 0.47 14.87
1/23/2021 4:00:00 PM 0.05 32.09 0.188 7.85 0.44 14.86
1/23/2021 4:15:00 PM 0 32 0.188 7.86 0.41 14.88
1/23/2021 4:30:00 PM 0 32 0.187 7.86 0.43 14.88
1/23/2021 4:45:00 PM 0 32 0.187 7.85 0.42 14.86
1/23/2021 5:00:00 PM 0 32 0.187 7.83 0.44 14.82
1/23/2021 5:15:00 PM -0.01 31.982 0.187 7.82 0.41 14.8
1/23/2021 5:30:00 PM 0 32 0.188 7.81 0.41 14.76
1/23/2021 5:45:00 PM 0 32 0.188 7.8 0.4 14.73
1/23/2021 6:00:00 PM 0 32 0.189 7.79 0.36 14.72
1/23/2021 6:15:00 PM 0.01 32.018 0.189 7.79 0.32 14.72
1/23/2021 6:30:00 PM 0 32 0.189 7.78 0.28 14.72
1/23/2021 6:45:00 PM 0.01 32.018 0.19 7.78 0.27 14.71
1/23/2021 7:00:00 PM 0.01 32.018 0.19 7.78 0.29 14.69
1/23/2021 7:15:00 PM 0.02 32.036 0.19 7.78 0.31 14.68
1/23/2021 7:30:00 PM 0.02 32.036 0.191 7.78 0.38 14.67
1/23/2021 7:45:00 PM 0.01 32.018 0.19 7.78 0.46 14.67
1/23/2021 8:00:00 PM 0.01 32.018 0.191 7.78 0.46 14.68
1/23/2021 8:15:00 PM 0.01 32.018 0.191 7.78 0.46 14.67
1/23/2021 8:30:00 PM 0.01 32.018 0.191 7.78 0.36 14.67
1/23/2021 8:45:00 PM 0.01 32.018 0.191 7.78 0.3 14.66
1/23/2021 9:00:00 PM 0 32 0.19 7.78 0.36 14.66
1/23/2021 9:15:00 PM 0 32 0.191 7.78 2.57 14.65
1/23/2021 9:30:00 PM 0 32 0.191 7.78 0.3 14.66
1/23/2021 9:45:00 PM 0 32 0.191 7.78 0.36 14.65
1/23/2021 10:00:00 PM 0 32 0.191 7.77 0.4 14.64
1/23/2021 10:15:00 PM 0 32 0.191 7.78 0.48 14.65
1/23/2021 10:30:00 PM 0.01 32.018 0.191 7.78 0.32 14.64
1/23/2021 10:45:00 PM 0.02 32.036 0.191 7.78 0.33 14.65
1/23/2021 11:00:00 PM 0.01 32.018 0.191 7.78 0.31 14.65
1/23/2021 11:15:00 PM 0.01 32.018 0.191 7.77 0.27 14.64
1/23/2021 11:30:00 PM 0.01 32.018 0.192 7.78 0.23 14.65
1/23/2021 11:45:00 PM 0.02 32.036 0.192 7.77 0.2 14.66
1/24/2021 12:00:00 AM 0.02 32.036 0.193 7.77 0.16 14.66
1/24/2021 12:15:00 AM 0.02 32.036 0.193 7.77 0.24 14.65
1/24/2021 12:30:00 AM 0.02 32.036 0.193 7.77 0.25 14.66
1/24/2021 12:45:00 AM 0.01 32.018 0.193 7.77 0.21 14.65
1/24/2021 1:00:00 AM 0.01 32.018 0.193 7.77 0.23 14.66
1/24/2021 1:15:00 AM 0.01 32.018 0.193 7.78 0.21 14.66
1/24/2021 1:30:00 AM 0.01 32.018 0.194 7.77 0.2 14.66
1/24/2021 1:45:00 AM 0.02 32.036 0.194 7.77 0.23 14.67
1/24/2021 2:00:00 AM 0.02 32.036 0.194 7.77 0.17 14.66
1/24/2021 2:15:00 AM 0.02 32.036 0.194 7.77 0.26 14.66
1/24/2021 2:30:00 AM 0.02 32.036 0.194 7.77 0.39 14.65
1/24/2021 2:45:00 AM 0.03 32.054 0.194 7.77 0.51 14.65
1/24/2021 3:00:00 AM 0.03 32.054 0.194 7.77 0.51 14.65
1/24/2021 3:15:00 AM 0.02 32.036 0.195 7.77 0.43 14.65
1/24/2021 3:30:00 AM 0.02 32.036 0.195 7.77 0.24 14.65
1/24/2021 3:45:00 AM 0.02 32.036 0.194 7.77 0.21 14.66
1/24/2021 4:00:00 AM 0.01 32.018 0.195 7.76 0.16 14.66
1/24/2021 4:15:00 AM 0.02 32.036 0.196 7.77 0.27 14.66
1/24/2021 4:30:00 AM 0.03 32.054 0.196 7.77 0.26 14.65
1/24/2021 4:45:00 AM 0.03 32.054 0.197 7.77 0.09 14.67
1/24/2021 5:00:00 AM 0.03 32.054 0.197 7.77 0.12 14.65
1/24/2021 5:15:00 AM 0.03 32.054 0.198 7.77 0.14 14.65
1/24/2021 5:30:00 AM 0.03 32.054 0.198 7.77 0.07 14.65
1/24/2021 5:45:00 AM 0.04 32.072 0.2 7.76 0.08 14.66
1/24/2021 6:00:00 AM 0.04 32.072 0.2 7.77 0.1 14.65
1/24/2021 6:15:00 AM 0.04 32.072 0.201 7.76 0.03 14.66
1/24/2021 6:30:00 AM 0.04 32.072 0.201 7.76 0.06 14.65
1/24/2021 6:45:00 AM 0.04 32.072 0.201 7.76 0.04 14.64
1/24/2021 7:00:00 AM 0.04 32.072 0.201 7.76 0.07 14.64
1/24/2021 7:15:00 AM 0.05 32.09 0.202 7.76 0.12 14.63
1/24/2021 7:30:00 AM 0.05 32.09 0.202 7.77 0.13 14.66
1/24/2021 7:45:00 AM 0.05 32.09 0.202 7.77 0.12 14.68
1/24/2021 8:00:00 AM 0.04 32.072 0.202 7.78 0.15 14.71
1/24/2021 8:15:00 AM 0.05 32.09 0.203 7.79 0.09 14.75
1/24/2021 8:30:00 AM 0.04 32.072 0.203 7.8 0.11 14.79
1/24/2021 8:45:00 AM 0.02 32.036 0.203 7.81 0.15 14.82
1/24/2021 9:00:00 AM 0.01 32.018 0.201 7.83 0.21 14.87
1/24/2021 9:15:00 AM 0.01 32.018 0.202 7.84 0.25 14.89
1/24/2021 9:30:00 AM 0.04 32.072 0.203 7.85 0.18 14.92
1/24/2021 9:45:00 AM 0.03 32.054 0.202 7.85 0.19 14.92
1/24/2021 10:00:00 AM 0.03 32.054 0.202 7.87 0.22 14.93
1/24/2021 10:15:00 AM 0.01 32.018 0.202 7.88 0.28 14.96
1/24/2021 10:30:00 AM 0.04 32.072 0.201 7.88 0.3 14.95
1/24/2021 10:45:00 AM 0.03 32.054 0.198 7.88 0.54 14.95
1/24/2021 11:00:00 AM 0.04 32.072 0.198 7.87 0.4 14.96
1/24/2021 11:15:00 AM 0.03 32.054 0.199 7.88 0.37 14.95
1/24/2021 11:30:00 AM 0.03 32.054 0.199 7.88 0.7 14.97
1/24/2021 11:45:00 AM 0.02 32.036 0.199 7.88 3.92 14.97
1/24/2021 12:00:00 PM 0.03 32.054 0.197 7.88 7.5 14.96
1/24/2021 12:15:00 PM 0.03 32.054 0.194 7.87 0.94 14.96
1/24/2021 12:30:00 PM 0.02 32.036 0.192 7.88 4.18 14.95
1/24/2021 12:45:00 PM 0.03 32.054 0.191 7.88 0.98 14.94
1/24/2021 1:00:00 PM 0.03 32.054 0.191 7.87 1.01 14.93
1/24/2021 1:15:00 PM 0.01 32.018 0.19 7.87 1.44 14.93
1/24/2021 1:30:00 PM 0 32 0.189 7.88 3.62 14.92
1/24/2021 1:45:00 PM 0.01 32.018 0.188 7.81 7.47 14.92
1/24/2021 2:00:00 PM 0.02 32.036 0.188 7.83 5.2 14.92
1/24/2021 2:15:00 PM 0.02 32.036 0.186 7.85 2.57 14.91
1/24/2021 2:30:00 PM 0.01 32.018 0.186 7.86 2.19 14.91
1/24/2021 2:45:00 PM 0.02 32.036 0.185 7.86 2.67 14.92
1/24/2021 3:00:00 PM 0.02 32.036 0.184 7.86 2.42 14.92
1/24/2021 3:15:00 PM 0.01 32.018 0.184 7.87 2.04 14.93
1/24/2021 3:30:00 PM 0.02 32.036 0.183 7.86 2.22 14.93
1/24/2021 3:45:00 PM 0.02 32.036 0.183 7.86 2.48 14.93
1/24/2021 4:00:00 PM 0.01 32.018 0.183 7.86 2.68 14.93
1/24/2021 4:15:00 PM 0.01 32.018 0.183 7.86 2.56 14.93
1/24/2021 4:30:00 PM 0.01 32.018 0.183 7.85 2.07 14.92
1/24/2021 4:45:00 PM 0.01 32.018 0.183 7.85 2.39 14.91
1/24/2021 5:00:00 PM 0.01 32.018 0.183 7.84 2.77 14.88
1/24/2021 5:15:00 PM 0.01 32.018 0.183 7.82 1.83 14.82
1/24/2021 5:30:00 PM 0.01 32.018 0.184 7.8 2.42 14.78
1/24/2021 5:45:00 PM 0.01 32.018 0.184 7.79 2.16 14.73
1/24/2021 6:00:00 PM 0.01 32.018 0.184 7.78 2.01 14.71
1/24/2021 6:15:00 PM 0.01 32.018 0.185 7.77 2.07 14.68
1/24/2021 6:30:00 PM 0.01 32.018 0.185 7.76 1.81 14.66
1/24/2021 6:45:00 PM 0.01 32.018 0.185 7.76 1.56 14.66
1/24/2021 7:00:00 PM 0.01 32.018 0.186 7.76 4.41 14.65
1/24/2021 7:15:00 PM 0.01 32.018 0.186 7.76 0.47 14.63
1/24/2021 7:30:00 PM 0.01 32.018 0.186 7.75 0.46 14.63
1/24/2021 7:45:00 PM 0.02 32.036 0.187 7.75 0.55 14.62
1/24/2021 8:00:00 PM 0.02 32.036 0.187 7.75 0.59 14.61
1/24/2021 8:15:00 PM 0.02 32.036 0.188 7.75 0.52 14.6
1/24/2021 8:30:00 PM 0.01 32.018 0.188 7.75 0.42 14.6
1/24/2021 8:45:00 PM 0.01 32.018 0.188 7.75 0.32 14.61
1/24/2021 9:00:00 PM 0.02 32.036 0.188 7.74 0.33 14.6
1/24/2021 9:15:00 PM 0.02 32.036 0.188 7.74 0.3 14.6
1/24/2021 9:30:00 PM 0.02 32.036 0.189 7.74 0.21 14.61
1/24/2021 9:45:00 PM 0.02 32.036 0.189 7.74 0.25 14.59
1/24/2021 10:00:00 PM 0.02 32.036 0.189 7.74 0.18 14.6
1/24/2021 10:15:00 PM 0.02 32.036 0.189 7.74 0.19 14.6
1/24/2021 10:30:00 PM 0.03 32.054 0.189 7.74 0.16 14.59
1/24/2021 10:45:00 PM 0.03 32.054 0.19 7.74 0.19 14.59
1/24/2021 11:00:00 PM 0.03 32.054 0.19 7.74 0.09 14.59
1/24/2021 11:15:00 PM 0.02 32.036 0.19 7.74 0.15 14.59
1/24/2021 11:30:00 PM 0.02 32.036 0.19 7.74 0.12 14.59
1/24/2021 11:45:00 PM 0.02 32.036 0.191 7.74 0.15 14.59
1/25/2021 12:00:00 AM 0.02 32.036 0.191 7.74 0.19 14.58
1/25/2021 12:15:00 AM 0.02 32.036 0.191 7.74 0.11 14.58
1/25/2021 12:30:00 AM 0.02 32.036 0.191 7.74 0.1 14.58
1/25/2021 12:45:00 AM 0.02 32.036 0.192 7.74 0.15 14.6
1/25/2021 1:00:00 AM 0.02 32.036 0.192 7.74 0.17 14.59
1/25/2021 1:15:00 AM 0.02 32.036 0.193 7.74 0.2 14.6
1/25/2021 1:30:00 AM 0.02 32.036 0.193 7.74 0.17 14.6
1/25/2021 1:45:00 AM 0.03 32.054 0.194 7.74 0.15 14.59
1/25/2021 2:00:00 AM 0.03 32.054 0.194 7.74 0.19 14.6
1/25/2021 2:15:00 AM 0.03 32.054 0.194 7.74 0.18 14.59
1/25/2021 2:30:00 AM 0.03 32.054 0.195 7.73 0.18 14.59
1/25/2021 2:45:00 AM 0.03 32.054 0.195 7.73 0.12 14.6
1/25/2021 3:00:00 AM 0.03 32.054 0.196 7.73 0.17 14.59
1/25/2021 3:15:00 AM 0.03 32.054 0.196 7.73 0.12 14.59
1/25/2021 3:30:00 AM 0.04 32.072 0.197 7.73 0.16 14.6
1/25/2021 3:45:00 AM 0.04 32.072 0.197 7.73 0.12 14.61
1/25/2021 4:00:00 AM 0.04 32.072 0.198 7.74 0.31 14.61
1/25/2021 4:15:00 AM 0.04 32.072 0.198 7.73 0.2 14.6
1/25/2021 4:30:00 AM 0.05 32.09 0.199 7.73 0.19 14.59
1/25/2021 4:45:00 AM 0.04 32.072 0.199 7.73 0.25 14.6
1/25/2021 5:00:00 AM 0.04 32.072 0.2 7.74 0.2 14.6
1/25/2021 5:15:00 AM 0.05 32.09 0.2 7.74 0.2 14.6
1/25/2021 5:30:00 AM 0.05 32.09 0.201 7.73 0.19 14.6
1/25/2021 5:45:00 AM 0.05 32.09 0.202 7.74 0.16 14.61
1/25/2021 6:00:00 AM 0.05 32.09 0.202 7.74 0.21 14.6
1/25/2021 6:15:00 AM 0.05 32.09 0.203 7.74 0.2 14.6
1/25/2021 6:30:00 AM 0.05 32.09 0.203 7.74 0.15 14.62
1/25/2021 6:45:00 AM 0.05 32.09 0.204 7.74 0.19 14.6
1/25/2021 7:00:00 AM 0.06 32.108 0.204 7.74 0.2 14.6
1/25/2021 7:15:00 AM 0.05 32.09 0.205 7.74 0.35 14.62
1/25/2021 7:30:00 AM 0.06 32.108 0.205 7.74 0.18 14.63
1/25/2021 7:45:00 AM 0.06 32.108 0.206 7.75 0.21 14.65
1/25/2021 8:00:00 AM 0.05 32.09 0.206 7.75 0.26 14.66
1/25/2021 8:15:00 AM 0.06 32.108 0.207 7.76 0.45 14.7
1/25/2021 8:30:00 AM 0.06 32.108 0.208 7.77 0.23 14.73
1/25/2021 8:45:00 AM 0.07 32.126 0.208 7.78 0.12 14.79
1/25/2021 9:00:00 AM 0.07 32.126 0.208 7.79 0.12 14.83
1/25/2021 9:15:00 AM 0.07 32.126 0.208 7.8 0.22 14.84
1/25/2021 9:30:00 AM 0.08 32.144 0.208 7.82 0.09 14.87
1/25/2021 9:45:00 AM 0.08 32.144 0.208 7.83 0.15 14.91
1/25/2021 10:00:00 AM 0.08 32.144 0.208 7.83 0.12 14.91
1/25/2021 10:15:00 AM -99999.99 -179968 -99999.99 -99999.99 -99999.99 -99999.99
1/25/2021 10:30:00 AM 0.09 32.162 0.208 7.86 0.22 14.93
1/25/2021 10:45:00 AM 0.08 32.144 0.207 7.87 0.27 14.93
1/25/2021 11:00:00 AM 0.08 32.144 0.207 7.87 0.27 14.92
1/25/2021 11:15:00 AM 0.07 32.126 0.207 7.88 0.91 14.92
1/25/2021 11:30:00 AM 0.07 32.126 0.208 7.89 0.42 14.91
1/25/2021 11:45:00 AM 0.07 32.126 0.206 7.89 0.43 14.9
1/25/2021 12:00:00 PM 0.06 32.108 0.204 7.89 0.66 14.88
1/25/2021 12:15:00 PM 0.06 32.108 0.203 7.89 0.64 14.87
1/25/2021 12:30:00 PM 0.05 32.09 0.203 7.9 0.71 14.86
1/25/2021 12:45:00 PM 0.04 32.072 0.202 7.9 0.73 14.86
1/25/2021 1:00:00 PM 0.04 32.072 0.201 7.9 0.89 14.85
1/25/2021 1:15:00 PM 0.02 32.036 0.2 7.89 0.94 14.85
1/25/2021 1:30:00 PM 0.02 32.036 0.202 7.9 3.54 14.86
1/25/2021 1:45:00 PM 0.03 32.054 0.201 7.89 1.08 14.86
1/25/2021 2:00:00 PM 0.02 32.036 0.199 7.88 1.22 14.85
1/25/2021 2:15:00 PM 0.02 32.036 0.197 7.9 1.46 14.86
1/25/2021 2:30:00 PM 0.02 32.036 0.194 7.89 1.7 14.86
1/25/2021 2:45:00 PM 0.02 32.036 0.193 7.89 1.76 14.86
1/25/2021 3:00:00 PM 0.02 32.036 0.193 7.89 1.86 14.86
1/25/2021 3:15:00 PM 0.02 32.036 0.191 7.89 1.78 14.86
1/25/2021 3:30:00 PM 0.02 32.036 0.191 7.88 1.84 14.87
1/25/2021 3:45:00 PM 0.02 32.036 0.19 7.88 1.77 14.86
1/25/2021 4:00:00 PM 0.02 32.036 0.19 7.88 1.79 14.86
1/25/2021 4:15:00 PM 0.02 32.036 0.189 7.88 1.88 14.86
1/25/2021 4:30:00 PM 0.02 32.036 0.188 7.87 1.95 14.84
1/25/2021 4:45:00 PM 0.01 32.018 0.188 7.86 1.77 14.81
1/25/2021 5:00:00 PM 0.01 32.018 0.187 7.84 1.82 14.76
1/25/2021 5:15:00 PM 0.01 32.018 0.187 7.82 1.56 14.71
1/25/2021 5:30:00 PM 0.01 32.018 0.187 7.8 1.72 14.67
1/25/2021 5:45:00 PM 0.02 32.036 0.187 7.79 1.52 14.62
1/25/2021 6:00:00 PM 0.02 32.036 0.187 7.78 1.46 14.6
1/25/2021 6:15:00 PM 0.02 32.036 0.187 7.76 1.27 14.58
1/25/2021 6:30:00 PM 0.02 32.036 0.187 7.76 1.46 14.57
1/25/2021 6:45:00 PM 0.02 32.036 0.187 7.76 1.12 14.56
1/25/2021 7:00:00 PM 0.02 32.036 0.187 7.75 1.15 14.55
1/25/2021 7:15:00 PM 0.02 32.036 0.187 7.75 1.21 14.54
1/25/2021 7:30:00 PM 0.02 32.036 0.187 7.75 1.07 14.54
1/25/2021 7:45:00 PM 0.02 32.036 0.187 7.75 0.98 14.53
1/25/2021 8:00:00 PM 0.02 32.036 0.188 7.75 0.94 14.53
1/25/2021 8:15:00 PM 0.02 32.036 0.188 7.75 0.78 14.52
1/25/2021 8:30:00 PM 0.02 32.036 0.188 7.75 0.69 14.53
1/25/2021 8:45:00 PM 0.02 32.036 0.188 7.75 0.71 14.53
1/25/2021 9:00:00 PM 0.02 32.036 0.188 7.74 0.69 14.53
1/25/2021 9:15:00 PM 0.02 32.036 0.188 7.74 0.55 14.53
1/25/2021 9:30:00 PM 0.02 32.036 0.188 7.74 0.55 14.53
1/25/2021 9:45:00 PM 0.02 32.036 0.188 7.74 0.58 14.53
1/25/2021 10:00:00 PM 0.02 32.036 0.188 7.74 0.5 14.52
1/25/2021 10:15:00 PM 0.02 32.036 0.188 7.74 0.49 14.52
1/25/2021 10:30:00 PM 0.02 32.036 0.188 7.74 0.46 14.51
1/25/2021 10:45:00 PM 0.02 32.036 0.188 7.75 0.42 14.51
1/25/2021 11:00:00 PM 0.03 32.054 0.188 7.74 0.46 14.51
1/25/2021 11:15:00 PM 0.03 32.054 0.188 7.75 0.36 14.5
1/25/2021 11:30:00 PM 0.02 32.036 0.188 7.75 0.38 14.5
1/25/2021 11:45:00 PM 0.03 32.054 0.188 7.75 0.39 14.5
1/26/2021 12:00:00 AM 0.03 32.054 0.188 7.74 0.31 14.5
1/26/2021 12:15:00 AM 0.03 32.054 0.188 7.74 0.35 14.5
1/26/2021 12:30:00 AM 0.03 32.054 0.188 7.74 0.35 14.5
1/26/2021 12:45:00 AM 0.02 32.036 0.188 7.74 0.27 14.5
1/26/2021 1:00:00 AM 0.03 32.054 0.188 7.75 0.32 14.49
1/26/2021 1:15:00 AM 0.03 32.054 0.188 7.75 0.34 14.49
1/26/2021 1:30:00 AM 0.03 32.054 0.188 7.74 0.31 14.49
1/26/2021 1:45:00 AM 0.03 32.054 0.188 7.75 0.38 14.48
1/26/2021 2:00:00 AM 0.03 32.054 0.188 7.75 0.4 14.48
1/26/2021 2:15:00 AM 0.03 32.054 0.188 7.75 0.32 14.47
1/26/2021 2:30:00 AM 0.03 32.054 0.188 7.75 0.34 14.48
1/26/2021 2:45:00 AM 0.03 32.054 0.188 7.75 0.3 14.47
1/26/2021 3:00:00 AM 0.03 32.054 0.188 7.75 0.24 14.47
1/26/2021 3:15:00 AM 0.04 32.072 0.188 7.75 0.29 14.46
1/26/2021 3:30:00 AM 0.04 32.072 0.188 7.75 0.29 14.46
1/26/2021 3:45:00 AM 0.03 32.054 0.188 7.75 0.31 14.46
1/26/2021 4:00:00 AM 0.04 32.072 0.188 7.75 0.23 14.45
1/26/2021 4:15:00 AM 0.04 32.072 0.188 7.75 0.27 14.45
1/26/2021 4:30:00 AM 0.04 32.072 0.188 7.75 0.26 14.44
1/26/2021 4:45:00 AM 0.04 32.072 0.188 7.76 0.3 14.44
1/26/2021 5:00:00 AM 0.04 32.072 0.188 7.76 0.27 14.43
1/26/2021 5:15:00 AM 0.04 32.072 0.188 7.75 0.26 14.43
1/26/2021 5:30:00 AM 0.04 32.072 0.188 7.76 0.39 14.43
1/26/2021 5:45:00 AM 0.04 32.072 0.188 7.76 0.28 14.42
1/26/2021 6:00:00 AM 0.04 32.072 0.188 7.76 0.27 14.42
1/26/2021 6:15:00 AM 0.04 32.072 0.188 7.76 0.4 14.41
1/26/2021 6:30:00 AM 0.04 32.072 0.188 7.76 0.49 14.41
1/26/2021 6:45:00 AM 0.04 32.072 0.188 7.76 0.47 14.41
1/26/2021 7:00:00 AM 0.04 32.072 0.188 7.76 0.45 14.41
1/26/2021 7:15:00 AM 0.04 32.072 0.188 7.76 2.39 14.41
1/26/2021 7:30:00 AM 0.04 32.072 0.188 7.76 0.57 14.41
1/26/2021 7:45:00 AM 0.05 32.09 0.188 7.77 0.42 14.44
1/26/2021 8:00:00 AM 0.05 32.09 0.188 7.79 0.54 14.48
1/26/2021 8:15:00 AM 0.06 32.108 0.188 7.8 0.48 14.51
1/26/2021 8:30:00 AM 0.06 32.108 0.188 7.8 0.51 14.54
1/26/2021 8:45:00 AM 0.06 32.108 0.188 7.82 0.45 14.57
1/26/2021 9:00:00 AM 0.07 32.126 0.188 7.82 0.41 14.59
1/26/2021 9:15:00 AM 0.07 32.126 0.188 7.84 0.46 14.62
1/26/2021 9:30:00 AM 0.08 32.144 0.188 7.85 0.5 14.65
1/26/2021 9:45:00 AM 0.08 32.144 0.188 7.86 0.41 14.68
1/26/2021 10:00:00 AM 0.09 32.162 0.188 7.86 0.39 14.71
1/26/2021 10:15:00 AM 0.09 32.162 0.187 7.87 0.33 14.72
1/26/2021 10:30:00 AM 0.09 32.162 0.187 7.88 0.29 14.73
1/26/2021 10:45:00 AM 0.09 32.162 0.187 7.89 0.32 14.74
1/26/2021 11:00:00 AM 0.08 32.144 0.187 7.88 0.32 14.74
1/26/2021 11:15:00 AM 0.07 32.126 0.187 7.89 0.26 14.75
1/26/2021 11:30:00 AM 0.05 32.09 0.187 7.88 0.34 14.74
1/26/2021 11:45:00 AM 0.01 32.018 0.186 7.88 0.6 14.74
1/26/2021 12:00:00 PM 0.01 32.018 0.186 7.88 0.73 14.74
1/26/2021 12:15:00 PM -0.01 31.982 0.186 7.85 28.28 14.75
1/26/2021 12:30:00 PM -0.01 31.982 0.177 7.89 117.6 14.76
1/26/2021 12:45:00 PM 0.01 32.018 0.186 7.86 59.29 14.76
1/26/2021 1:00:00 PM 0.03 32.054 0.186 7.87 0.42 14.76
1/26/2021 1:15:00 PM 0.03 32.054 0.186 7.88 0.41 14.76
1/26/2021 1:30:00 PM 0.03 32.054 0.186 7.88 0.3 14.74
1/26/2021 1:45:00 PM 0.02 32.036 0.186 7.88 0.54 14.73
1/26/2021 2:00:00 PM 0.02 32.036 0.186 7.88 0.42 14.72
1/26/2021 2:15:00 PM 0.02 32.036 0.186 7.88 0.44 14.73
1/26/2021 2:30:00 PM 0.03 32.054 0.186 7.88 0.29 14.73
1/26/2021 2:45:00 PM 0.03 32.054 0.186 7.88 0.29 14.72
1/26/2021 3:00:00 PM 0.04 32.072 0.185 7.88 0.3 14.72
1/26/2021 3:15:00 PM 0.04 32.072 0.185 7.87 0.44 14.7
1/26/2021 3:30:00 PM 0.05 32.09 0.185 7.87 0.48 14.69
1/26/2021 3:45:00 PM 0.05 32.09 0.185 7.87 0.36 14.66
1/26/2021 4:00:00 PM 0.06 32.108 0.185 7.86 0.26 14.63
1/26/2021 4:15:00 PM 0.06 32.108 0.185 7.85 0.32 14.6
1/26/2021 4:30:00 PM 0.07 32.126 0.185 7.84 0.29 14.56
1/26/2021 4:45:00 PM 0.08 32.144 0.186 7.83 0.24 14.52
1/26/2021 5:00:00 PM 0.07 32.126 0.185 7.82 0.3 14.48
1/26/2021 5:15:00 PM 0.07 32.126 0.185 7.81 0.3 14.45
1/26/2021 5:30:00 PM 0.07 32.126 0.185 7.8 0.26 14.42
1/26/2021 5:45:00 PM 0.08 32.144 0.185 7.8 0.2 14.4
1/26/2021 6:00:00 PM 0.08 32.144 0.186 7.8 0.23 14.38
1/26/2021 6:15:00 PM 0.08 32.144 0.186 7.79 0.25 14.37
1/26/2021 6:30:00 PM 0.08 32.144 0.186 7.79 0.24 14.36
1/26/2021 6:45:00 PM 0.08 32.144 0.186 7.79 0.33 14.36
1/26/2021 7:00:00 PM 0.07 32.126 0.186 7.78 0.35 14.35
1/26/2021 7:15:00 PM 0.06 32.108 0.186 7.78 0.39 14.35
1/26/2021 7:30:00 PM 0.07 32.126 0.186 7.78 0.38 14.35
1/26/2021 7:45:00 PM 0.07 32.126 0.185 7.78 0.43 14.35
1/26/2021 8:00:00 PM 0.08 32.144 0.186 7.77 0.42 14.34
1/26/2021 8:15:00 PM 0.09 32.162 0.185 7.78 0.42 14.34
1/26/2021 8:30:00 PM 0.09 32.162 0.185 7.78 0.35 14.34
1/26/2021 8:45:00 PM 0.1 32.18 0.185 7.77 0.33 14.33
1/26/2021 9:00:00 PM 0.1 32.18 0.185 7.78 0.33 14.33
1/26/2021 9:15:00 PM 0.11 32.198 0.186 7.78 0.32 14.32
1/26/2021 9:30:00 PM 0.12 32.216 0.185 7.78 0.28 14.32
1/26/2021 9:45:00 PM 0.12 32.216 0.185 7.77 0.32 14.32
1/26/2021 10:00:00 PM 0.12 32.216 0.185 7.77 0.34 14.32
1/26/2021 10:15:00 PM 0.12 32.216 0.185 7.77 0.35 14.31
1/26/2021 10:30:00 PM 0.12 32.216 0.185 7.77 0.27 14.31
1/26/2021 10:45:00 PM 0.12 32.216 0.185 7.77 0.27 14.31
1/26/2021 11:00:00 PM 0.12 32.216 0.185 7.77 0.27 14.31
1/26/2021 11:15:00 PM 0.13 32.234 0.185 7.77 0.3 14.31
1/26/2021 11:30:00 PM 0.13 32.234 0.185 7.77 0.27 14.31
1/26/2021 11:45:00 PM 0.13 32.234 0.185 7.77 0.27 14.31
1/27/2021 12:00:00 AM 0.14 32.252 0.185 7.77 0.2 14.31
1/27/2021 12:15:00 AM 0.15 32.27 0.185 7.77 0.26 14.31
1/27/2021 12:30:00 AM 0.15 32.27 0.185 7.77 0.75 14.31
1/27/2021 12:45:00 AM 0.15 32.27 0.185 7.77 0.49 14.3
1/27/2021 1:00:00 AM 0.16 32.288 0.184 7.77 0.54 14.3
1/27/2021 1:15:00 AM 0.16 32.288 0.185 7.77 0.54 14.3
1/27/2021 1:30:00 AM 0.16 32.288 0.185 7.77 0.42 14.3
1/27/2021 1:45:00 AM 0.16 32.288 0.185 7.77 0.48 14.31
1/27/2021 2:00:00 AM 0.15 32.27 0.185 7.78 0.41 14.31
1/27/2021 2:15:00 AM 0.16 32.288 0.185 7.78 0.43 14.31
1/27/2021 2:30:00 AM 0.16 32.288 0.185 7.77 0.35 14.32
1/27/2021 2:45:00 AM 0.16 32.288 0.185 7.78 0.31 14.32
1/27/2021 3:00:00 AM 0.16 32.288 0.185 7.78 0.39 14.33
1/27/2021 3:15:00 AM 0.15 32.27 0.185 7.78 0.4 14.34
1/27/2021 3:30:00 AM 0.15 32.27 0.185 7.78 0.42 14.34
1/27/2021 3:45:00 AM 0.15 32.27 0.185 7.78 0.38 14.36
1/27/2021 4:00:00 AM 0.15 32.27 0.185 7.79 0.34 14.36
1/27/2021 4:15:00 AM 0.14 32.252 0.185 7.79 0.33 14.37
1/27/2021 4:30:00 AM 0.13 32.234 0.185 7.78 0.39 14.38
1/27/2021 4:45:00 AM 0.13 32.234 0.185 7.78 0.37 14.39
1/27/2021 5:00:00 AM 0.13 32.234 0.185 7.78 0.37 14.4
1/27/2021 5:15:00 AM 0.12 32.216 0.185 7.79 0.33 14.4
1/27/2021 5:30:00 AM 0.12 32.216 0.185 7.79 0.35 14.41
1/27/2021 5:45:00 AM 0.11 32.198 0.185 7.79 0.32 14.42
1/27/2021 6:00:00 AM 0.1 32.18 0.184 7.79 0.32 14.43
1/27/2021 6:15:00 AM 0.09 32.162 0.185 7.78 0.28 14.43
1/27/2021 6:30:00 AM 0.09 32.162 0.185 7.79 0.27 14.44
1/27/2021 6:45:00 AM 0.09 32.162 0.184 7.79 0.28 14.44
1/27/2021 7:00:00 AM 0.09 32.162 0.185 7.79 0.27 14.45
1/27/2021 7:15:00 AM 0.08 32.144 0.188 7.79 0.41 14.46
1/27/2021 7:30:00 AM 0.08 32.144 0.191 7.79 0.44 14.47
1/27/2021 7:45:00 AM 0.09 32.162 0.187 7.79 0.31 14.48
1/27/2021 8:00:00 AM 0.08 32.144 0.187 7.8 0.35 14.51
1/27/2021 8:15:00 AM 0.1 32.18 0.185 7.8 0.21 14.53
1/27/2021 8:30:00 AM 0.11 32.198 0.185 7.81 0.27 14.55
1/27/2021 8:45:00 AM 0.12 32.216 0.185 7.81 0.28 14.57
1/27/2021 9:00:00 AM 0.12 32.216 0.185 7.82 0.24 14.61
1/27/2021 9:15:00 AM 0.12 32.216 0.185 7.83 0.25 14.64
1/27/2021 9:30:00 AM 0.13 32.234 0.185 7.84 0.23 14.68
1/27/2021 9:45:00 AM 0.15 32.27 0.185 7.85 0.21 14.73
1/27/2021 10:00:00 AM 0.17 32.306 0.185 7.87 0.17 14.77
1/27/2021 10:15:00 AM 0.18 32.324 0.185 7.88 0.16 14.8
1/27/2021 10:30:00 AM 0.19 32.342 0.185 7.89 0.18 14.82
1/27/2021 10:45:00 AM 0.21 32.378 0.185 7.89 0.18 14.82
1/27/2021 11:00:00 AM 0.22 32.396 0.185 7.9 0.16 14.83
1/27/2021 11:15:00 AM 0.23 32.414 0.185 7.9 0.1 14.85
1/27/2021 11:30:00 AM 0.25 32.45 0.185 7.9 0.12 14.85
1/27/2021 11:45:00 AM 0.23 32.414 0.185 7.9 0.11 14.84
1/27/2021 12:00:00 PM 0.24 32.432 0.185 7.9 0.14 14.84
1/27/2021 12:15:00 PM 0.26 32.468 0.185 7.91 0.08 14.84
1/27/2021 12:30:00 PM 0.31 32.558 0.185 7.91 0.19 14.84
1/27/2021 12:45:00 PM 0.33 32.594 0.185 7.91 0.1 14.85
1/27/2021 1:00:00 PM 0.36 32.648 0.186 7.92 0.08 14.84
1/27/2021 1:15:00 PM 0.38 32.684 0.186 7.92 0.08 14.84
1/27/2021 1:30:00 PM 0.43 32.774 0.187 7.92 0.07 14.84
1/27/2021 1:45:00 PM 0.51 32.918 0.188 7.92 0.15 14.84
1/27/2021 2:00:00 PM 0.49 32.882 0.188 7.92 0.08 14.82
1/27/2021 2:15:00 PM 0.47 32.846 0.19 7.92 0.07 14.81
1/27/2021 2:30:00 PM 0.47 32.846 0.192 7.92 0.09 14.81
1/27/2021 2:45:00 PM 0.44 32.792 0.197 7.92 0.2 14.81
1/27/2021 3:00:00 PM 0.42 32.756 0.194 7.92 0.15 14.81
1/27/2021 3:15:00 PM 0.44 32.792 0.191 7.92 0.17 14.81
1/27/2021 3:30:00 PM 0.42 32.756 0.19 7.92 0.16 14.81
1/27/2021 3:45:00 PM 0.42 32.756 0.189 7.91 0.1 14.79
1/27/2021 4:00:00 PM 0.4 32.72 0.189 7.9 0.08 14.77
1/27/2021 4:15:00 PM 0.38 32.684 0.189 7.89 0.14 14.73
1/27/2021 4:30:00 PM 0.36 32.648 0.188 7.88 0.2 14.7
1/27/2021 4:45:00 PM 0.34 32.612 0.188 7.86 0.14 14.66
1/27/2021 5:00:00 PM 0.32 32.576 0.188 7.85 0.16 14.64
1/27/2021 5:15:00 PM 0.29 32.522 0.188 7.84 0.14 14.61
1/27/2021 5:30:00 PM 0.27 32.486 0.188 7.83 0.18 14.57
1/27/2021 5:45:00 PM 0.26 32.468 0.188 7.82 0.18 14.55
1/27/2021 6:00:00 PM 0.25 32.45 0.188 7.81 0.16 14.54
1/27/2021 6:15:00 PM 0.23 32.414 0.188 7.8 0.18 14.52
1/27/2021 6:30:00 PM 0.22 32.396 0.188 7.8 0.26 14.52
1/27/2021 6:45:00 PM 0.21 32.378 0.188 7.8 0.19 14.53
1/27/2021 7:00:00 PM 0.2 32.36 0.188 7.8 0.19 14.52
1/27/2021 7:15:00 PM 0.2 32.36 0.188 7.79 0.16 14.53
1/27/2021 7:30:00 PM 0.19 32.342 0.188 7.79 0.19 14.53
1/27/2021 7:45:00 PM 0.18 32.324 0.188 7.79 0.22 14.53
1/27/2021 8:00:00 PM 0.17 32.306 0.188 7.79 0.19 14.53
1/27/2021 8:15:00 PM 0.17 32.306 0.188 7.79 0.18 14.53
1/27/2021 8:30:00 PM 0.16 32.288 0.188 7.79 0.18 14.53
1/27/2021 8:45:00 PM 0.16 32.288 0.187 7.79 0.15 14.53
1/27/2021 9:00:00 PM 0.15 32.27 0.187 7.79 0.19 14.54
1/27/2021 9:15:00 PM 0.15 32.27 0.187 7.79 0.16 14.54
1/27/2021 9:30:00 PM 0.14 32.252 0.187 7.79 0.18 14.54
1/27/2021 9:45:00 PM 0.13 32.234 0.187 7.79 0.18 14.54
1/27/2021 10:00:00 PM 0.12 32.216 0.187 7.79 0.26 14.54
1/27/2021 10:15:00 PM 0.1 32.18 0.187 7.79 0.25 14.55
1/27/2021 10:30:00 PM 0.09 32.162 0.187 7.79 0.23 14.55
1/27/2021 10:45:00 PM 0.09 32.162 0.187 7.79 0.27 14.55
1/27/2021 11:00:00 PM 0.09 32.162 0.187 7.79 0.34 14.55
1/27/2021 11:15:00 PM 0.08 32.144 0.187 7.79 0.42 14.55
1/27/2021 11:30:00 PM 0.08 32.144 0.188 7.79 0.44 14.56
1/27/2021 11:45:00 PM 0.08 32.144 0.188 7.79 0.5 14.56
1/28/2021 12:00:00 AM 0.06 32.108 0.188 7.79 0.47 14.57
1/28/2021 12:15:00 AM 0.05 32.09 0.188 7.79 0.48 14.57
1/28/2021 12:30:00 AM 0.05 32.09 0.188 7.79 0.56 14.57
1/28/2021 12:45:00 AM 0.05 32.09 0.188 7.79 0.56 14.57
1/28/2021 1:00:00 AM 0.05 32.09 0.188 7.79 0.71 14.56
1/28/2021 1:15:00 AM 0.04 32.072 0.188 7.79 0.78 14.56
1/28/2021 1:30:00 AM 0.04 32.072 0.188 7.79 0.81 14.56
1/28/2021 1:45:00 AM 0.03 32.054 0.188 7.79 0.76 14.56
1/28/2021 2:00:00 AM 0.03 32.054 0.188 7.79 0.71 14.57
1/28/2021 2:15:00 AM 0.03 32.054 0.188 7.79 0.72 14.57
1/28/2021 2:30:00 AM 0.02 32.036 0.188 7.79 0.71 14.57
1/28/2021 2:45:00 AM 0.02 32.036 0.188 7.79 0.6 14.57
1/28/2021 3:00:00 AM 0.02 32.036 0.188 7.79 0.54 14.57
1/28/2021 3:15:00 AM 0.02 32.036 0.188 7.79 0.5 14.57
1/28/2021 3:30:00 AM 0.03 32.054 0.188 7.79 0.49 14.57
1/28/2021 3:45:00 AM 0.04 32.072 0.188 7.79 0.47 14.57
1/28/2021 4:00:00 AM 0.03 32.054 0.188 7.79 0.44 14.56
1/28/2021 4:15:00 AM 0.03 32.054 0.188 7.79 0.49 14.56
1/28/2021 4:30:00 AM 0.02 32.036 0.188 7.79 0.48 14.57
1/28/2021 4:45:00 AM 0.01 32.018 0.188 7.79 0.53 14.57
1/28/2021 5:00:00 AM 0 32 0.188 7.79 0.65 14.58
1/28/2021 5:15:00 AM 0 32 0.188 7.79 0.64 14.59
1/28/2021 5:30:00 AM 0.01 32.018 0.188 7.79 0.57 14.6
1/28/2021 5:45:00 AM 0 32 0.188 7.8 0.66 14.6
1/28/2021 6:00:00 AM -0.01 31.982 0.188 7.78 9.39 14.61
1/28/2021 6:15:00 AM -0.01 31.982 0.186 7.81 15.66 14.61
1/28/2021 6:30:00 AM -0.01 31.982 0.186 7.8 21.78 14.61
1/28/2021 6:45:00 AM 0 32 0.189 7.79 9 14.62
1/28/2021 7:00:00 AM 0 32 0.189 7.8 0.61 14.62
1/28/2021 7:15:00 AM -0.01 31.982 0.188 7.8 12.21 14.63
1/28/2021 7:30:00 AM -0.01 31.982 0.176 7.8 8.81 14.64
1/28/2021 7:45:00 AM -0.01 31.982 0.188 7.81 15.24 14.67
1/28/2021 8:00:00 AM -0.01 31.982 0.183 7.82 63.01 14.71
1/28/2021 8:15:00 AM -0.01 31.982 0.184 7.84 14.32 14.78
1/28/2021 8:30:00 AM -0.01 31.982 0.189 7.85 19.59 14.83
1/28/2021 8:45:00 AM 0 32 0.19 7.86 8.69 14.89
1/28/2021 9:00:00 AM 0 32 0.19 7.87 0.54 14.93
1/28/2021 9:15:00 AM 0.01 32.018 0.189 7.89 0.4 14.96
1/28/2021 9:30:00 AM 0.01 32.018 0.189 7.9 0.44 14.99
1/28/2021 9:45:00 AM 0.02 32.036 0.189 7.91 0.35 15.01
1/28/2021 10:00:00 AM 0.02 32.036 0.189 7.91 0.35 15.02
1/28/2021 10:15:00 AM 0.02 32.036 0.189 7.91 0.34 15.03
1/28/2021 10:30:00 AM 0.02 32.036 0.189 7.92 0.33 15.04
1/28/2021 10:45:00 AM 0.02 32.036 0.189 7.92 0.42 15.03
1/28/2021 11:00:00 AM 0.03 32.054 0.188 7.93 0.36 15.03
1/28/2021 11:15:00 AM 0.04 32.072 0.188 7.93 0.28 15.03
1/28/2021 11:30:00 AM 0.07 32.126 0.189 7.93 0.23 15.03
1/28/2021 11:45:00 AM 0.09 32.162 0.188 7.93 0.23 15.03
1/28/2021 12:00:00 PM 0.15 32.27 0.188 7.93 0.22 15.01
1/28/2021 12:15:00 PM 0.21 32.378 0.188 7.93 0.17 14.98
1/28/2021 12:30:00 PM 0.31 32.558 0.187 7.94 0.21 14.97
1/28/2021 12:45:00 PM 0.3 32.54 0.187 7.94 0.14 14.97
1/28/2021 1:00:00 PM 0.36 32.648 0.188 7.94 0.11 14.95
1/28/2021 1:15:00 PM 0.36 32.648 0.189 7.94 0.15 14.94
1/28/2021 1:30:00 PM 0.36 32.648 0.189 7.94 0.19 14.94
1/28/2021 1:45:00 PM 0.38 32.684 0.19 7.94 0.16 14.94
1/28/2021 2:00:00 PM 0.41 32.738 0.19 7.94 0.17 14.95
1/28/2021 2:15:00 PM 0.38 32.684 0.19 7.94 0.17 14.94
1/28/2021 2:30:00 PM 0.42 32.756 0.189 7.94 0.18 14.94
1/28/2021 2:45:00 PM 0.3 32.54 0.189 7.94 0.16 14.95
1/28/2021 3:00:00 PM 0.24 32.432 0.189 7.94 0.18 14.96
1/28/2021 3:15:00 PM 0.16 32.288 0.189 7.94 0.16 14.98
1/28/2021 3:30:00 PM 0.15 32.27 0.188 7.94 0.13 15
1/28/2021 3:45:00 PM 0.09 32.162 0.189 7.94 0.12 15.02

These are provisional data and have not been subject to a quality assurance process, but rather are the raw data reported by the instrument.
H: value is above sensor operating range
L: value is below sensor operating range
Offline: station is not reporting data
NC: parameter is not collected at site

Data Availability & Limitations

Uncertainty and potential for error can be associated with environmental monitoring data. Provisional data have not been subject to a quality assurance process, but rather are the raw data reported by the instrument. Data users are cautioned to consider carefully the provisional nature of the information before using it for decisions that concern personal or public safety or the conduct of business that involves substantial monetary or operational consequences.

Approved data are currently available by request by emailing: srbc@srbc.net. Approved data have been subject to a quality assurance process to correct for equipment or fouling drift. Data recorded during equipment malfunctions have been removed.

View Historical Stations that have been discontinued.